Articles Comments Reads Score Date Action
Buying The Building But Leasing The Land 4 1099 0 2004-02-26
Forming An LLC In AZ 3 1363 0 2004-02-25
How Is Commercial Property Wholesaling? 1 967 0 2004-02-24
Acapulco, Mex Commercial Property 1 1114 0 2004-02-23
Financing Question On Commercial Property 2 1145 0 2004-02-09
Need Financial Ratios 2 957 0 2004-02-07
Cap Rates 8 1540 0 2004-02-06
Is Getting Zoning Changed Difficult In SoCal? 7 1220 0 2004-02-24
Zoning Issue 2 1331 0 2004-02-16
Residential / Office Area Zoning Question. 8 1600 0 2004-02-12
Enviromental Audit For Commercial Building 1 1255 0 2004-02-10
Big Business! 2 1313 0 2004-02-25
Help Needed...What Would You Do? 11 1358 0 2004-02-24
How Much Do I Charge??? 2 1095 0 2004-02-24
Storage Uses For Former Gas Station Parcel 1 1243 0 2004-02-23
What's A Vacant Gas Station Good For??? 8 1447 0 2004-02-15
Need Advice Office Building Purchase 3 1596 0 2004-02-07
Self Directed IRA 12 3127 0 2004-02-06
Investing In Storage Spaces And/or Parking Spaces 10 1468 0 2004-02-05
Need Help With A Convience Store Purchase - What Would You Do?? 4 1302 0 2004-02-18
Commercial Retail Developing 1 1289 0 2004-02-06
The Same People? 3 486 0 2004-02-27
How Can I Edit An Obnoxious Reply In Legal Forum? 1 427 0 2004-02-26
WHAT IS THIS ABOUT 0 457 0 2004-02-26
I Don't Want To Get Involved So I'll Ask You Guys 8 553 0 2004-02-25
Duplicate Post 0 448 0 2004-02-23
Delete 0 452 0 2004-02-23
Davese...what Do You Make Of Him? 1 445 0 2004-02-20
I Think It's Time 0 440 0 2004-02-20
What Do You Think, Mods? 5 524 0 2004-02-20
A Board Hustler? 1 480 0 2004-02-20
Need Opinions On This Post 3 472 0 2004-02-17
THis Should Be Deleted 1 494 0 2004-02-16
Why Should This Be Deleted Or Modified? 1 457 0 2004-02-16
How Long Is A Prison Sentence? 0 452 0 2004-02-14
Blantant Advertising, Collarcityauctions 0 513 0 2004-02-13
Is This A Board Hustling? 1 500 0 2004-02-12
First Stages 3 502 0 2004-02-12
Your Opinion On This Post. 5 527 0 2004-02-10
Here's Another One, John 3 460 0 2004-02-10
Creative Martketing Idea. 4 540 0 2004-02-09
Raj Control Needed 3 454 0 2004-02-08
What Do You Moderators Think? 4 511 0 2004-02-07
Whole Thread Is An Ad 0 468 0 2004-02-06
Wrong Fourm 0 456 0 2004-02-06
Hustler 1 457 0 2004-02-06
Tough Forum To Handle. 1 493 0 2004-02-06
Advertising 2 528 0 2004-02-05
Many Ads 3 543 0 2004-02-04
Can A Small Inheritance Really Go A Long Way? 1 1074 0 2004-02-29
How To Get "permission" To Work With Bank 6 1273 0 2004-02-29
Auction In 10 Days 2 1176 0 2004-02-28
IRS Lien 2 1167 0 2004-02-27
Deficiency Judgement Taxation 1 851 0 2004-02-27
Protection 1 845 0 2004-02-27
What's Realistic On A Short Sale Deal?????? 7 1221 0 2004-02-27
Money To Seller 2 999 0 2004-02-27
CBA's 1 1152 0 2004-02-26
CMA's 3 1468 0 2004-02-26
SS And Increasing Prom. Note F/u 7 980 0 2004-02-26
Where's My Package??!!!! 4 1100 0 2004-02-26
BPO 9 1318 0 2004-02-26
Should Owner Attend Hearings 0 853 0 2004-02-26
Does Seller Have To Occupy The Property 5 1042 0 2004-02-26
Short Sale Success Story 2 1156 0 2004-02-26
How Do I Delay An Auction 3 1244 0 2004-02-25
Negotiating With Junior Lien Holders 0 2100 0 2004-02-25
What Does It Cost Bank To Foreclose? 1 1183 0 2004-02-25
Short Issue, Short Question???????? 17 2343 0 2004-02-24
Looking For A Good Foundation. 4 1186 0 2004-02-24
** HELP ** Stopping The Sale By Claiming Failure To Notify 3 1049 0 2004-02-24
3 Quick SS Questions 1 1030 0 2004-02-24
Information/Advise Please 8 1188 0 2004-02-23
Advice On My First Short, Please... 4 1102 0 2004-02-23
Questions On Short Sale Package 10 1256 0 2004-02-23
CMAs How Much Is That Foreclosure Worth? 4 1452 0 2004-02-23
Negotiate Out Lender Request For A Listing Agreement? 3 972 0 2004-02-22
15 For 30....what Is This?? 15 2144 0 2004-02-20
Quick Response To Short Sale 3 1015 0 2004-02-20
Thank You!!! 0 871 0 2004-02-20
Form 2 1093 0 2004-02-20
Need Help Understanding This One 0 1213 0 2004-02-19
Your Biggest "watch Out For....." 5 1316 0 2004-02-19
Has Anyone Had Any Experience In Dealing With The IRS? 0 1043 0 2004-02-19
Short Sale Question 7 1303 0 2004-02-19
EEEK!! Short Sale Delemna 7 1074 0 2004-02-19
Short Sale Then Sign A Purchase Contract Then Flip? 3 1178 0 2004-02-19
How Much Of A Discount??? 1 1044 0 2004-02-19
Quality Short Sale Package 3 1061 0 2004-02-18
Ch 13 Bankruptcy Short Sale 6 1110 0 2004-02-18
Short Sales That Aren't Short Enough 11 1576 0 2004-02-18
Short Sale And PMI 2 1092 0 2004-02-18
Short Sale From Owner Easier Than From Bank? 8 1064 0 2004-02-18
BPO Questions 4 1062 0 2004-02-17
What A Bank Wants To See....... 2 954 0 2004-02-17
Short Sale Committment? 2 1096 0 2004-02-17
What Did I Do Wrong & How Do I Fix IT? 11 1547 0 2004-02-16
Was I Told Wrong 2 893 0 2004-02-16
Short Sale Bid Advice / Experience 1 920 0 2004-02-16
Where Are Short Sales Going? 8 1135 0 2004-02-16
Short Sales On Pretty Houses 1 1060 0 2004-02-16
Short Sale With Wells Fargo????? 5 1128 0 2004-02-16
Does This Have Good Short-Sale Potential? 9 956 0 2004-02-16
Title Search Before Closing? 2 994 0 2004-02-16
Favorite Lenders To Short Sale With 10 1557 0 2004-02-16
Problem With Seller's Brother 13 927 0 2004-02-16
How Will This Look? 4 1062 0 2004-02-16
Short Sale Question? 4 964 0 2004-02-15
Thinking Outside The Box.. 8 1522 0 2004-02-15
Recording The Deed BEFORE Closing 1 932 0 2004-02-14
How Long Does A SS Usually Take? 1 965 0 2004-02-14
Hud-1/Settlement Statement 7 1443 0 2004-02-14
How To Find Short Sale Deals 2 1072 0 2004-02-14
Persistence Paid Off -Score= Countrywide-1 Seller-2 Buyer-$5000.00? 1 1218 0 2004-02-14
Short Sale In 2 Weeks 4 1037 0 2004-02-14
Would Someone List The Steps Of Proceeding With A Short Sale Please? 3 1327 0 2004-02-13
Phone Number For Green Tree Mortgage Service 1 1112 0 2004-02-13
Questions For SSP 1 940 0 2004-02-12
Condition Of House For Short Sale? 2 859 0 2004-02-12
Can I Short This? 1 1142 0 2004-02-12
Short Sale Assistance Needed 6 1339 0 2004-02-11
Homecoming Financial Contact Info 0 1834 0 2004-02-11
Countrywide's Dragging Their Feet - Help! 7 1440 0 2004-02-11
Closing In A Week!! 6 1179 0 2004-02-11
Looking At A Short Sale 2 970 0 2004-02-11
My First Short Sale ( Hopefully ) 2 976 0 2004-02-11
Simultaneous Closing Strategies??? 12 1495 0 2004-02-11
Ameriquest 1 1149 0 2004-02-11
SSP- 10K Promissary Note??????? 2 872 0 2004-02-10
Short Sale On 2nd In Bankruptcy? 2 947 0 2004-02-10
Need Good Attorney In Chicagoland 0 1060 0 2004-02-09
Basic (hopefully) Question - Sub-to & Short Sale HELP? 5 1117 0 2004-02-09
What Exactly Is A Short Sale 3 1074 0 2004-02-09
Short Sale With Equity 4 1196 0 2004-02-09
Short Sale-quit Claim Deed? 2 1149 0 2004-02-09
2nd Is Foreclosing 1st Isn't Yet? 5 1249 0 2004-02-09
Can This Be Done When Attempting A Short? 1 882 0 2004-02-08
HELP!! Owners Will Not Cooperate!!!!!! 3 975 0 2004-02-07
A Short Sale Disaster - My First Short Sale 12 2648 0 2004-02-07
FHA Short Sale - Vacant House: HELP ! ! ! 5 1181 0 2004-02-07
Short Sale Gone Wrong 7 1525 0 2004-02-07
Getting The DEED... 5 1331 0 2004-02-07
Short Not Accepted 14 1567 0 2004-02-07
Advice & Tips On VA Short 0 919 0 2004-02-07
Bank Won't Stop Sale, Any Suggestions? 1 1143 0 2004-02-07
Principal Residential Mortgage Loss Mitigation Numbers 0 937 0 2004-02-06
Even If You Do Everything Right... 3 936 0 2004-02-06
Short Sale Denied/Filed BK, What Now? 5 1173 0 2004-02-06
Short Sale On House In Chapter 13 3 1045 0 2004-02-04
Purchase Note & Trust Deed -vs- Short Sale 1 994 0 2004-02-04
ShortSalePackaging 1 1029 0 2004-02-04
Question About TCI's Short Sale E-Books 2 1006 0 2004-02-03
QUESTION ABOUT SHORT SALE PROCEDURE 6 1265 0 2004-02-03
Final Steps Of The Short Sale 11 1613 0 2004-02-03
Lenders Required 0 1028 0 2004-02-03
Short Sale Help??? 1 896 0 2004-02-03
Land Contract 1 889 0 2004-02-02
1st And 2nd By Litton, The 1st Is Foreclosing, Ideas? 4 1290 0 2004-02-02
How Long Should I Allow To Do A Short? 3 1031 0 2004-02-02
Short Sale Procedure 5 1212 0 2004-02-02
Back Taxes On Short Offer 7 968 0 2004-02-02
Purchase Agreement Clauses 1 1100 0 2004-02-01
Who Offers Best Subject To Package? 21 3530 0 2004-02-29
Anyone Knows Of Title Company -- Houston, Tx 1 813 0 2004-02-28
California - Subject To Forms Needed 4 1291 0 2004-02-27
Sub2 And P&S - Fundamental Question 2 1070 0 2004-02-27
Home Warranty ??? 7 1161 0 2004-02-27
Sub2 Not For Begginners??? 6 1359 0 2004-02-27
Subject 2/DOS Question 4 1074 0 2004-02-26
Selling Subject To Deal With A Wrap Around Mortgage Deed 4 1199 0 2004-02-26
Subject 2 Or Wrap 0 944 0 2004-02-25
Second Mortgage Question 2 1726 0 2004-02-25
SELLING SUBJ TO??? 2 1414 0 2004-02-25
Qualified Intermediary 1 910 0 2004-02-25
Tricky SubTo Deal? Need Creative Solution 0 926 0 2004-02-25
John Locke Sub 2 Manual 9 2201 0 2004-02-25
Now What? 0 1282 0 2004-02-24
Ok All I Just Ordered The Locke Sub 2 Manual 0 980 0 2004-02-24
Sub To...for Own Use (owner Occupied) 5 1173 0 2004-02-24
Subject To's, Trusts, Gurus And Laws In NY 1 912 0 2004-02-24
Sub To Re-fi On A Manufactured Home? 0 870 0 2004-02-23
Johns Sub 2 Course 0 1065 0 2004-02-23
First Time Buyer 1 860 0 2004-02-23
Possible Subject To Deal 6 1183 0 2004-02-23
Is 'Sub-To' For The Newbie Investor?? 7 1324 0 2004-02-23
Buy SubTo, Give Cash Back To Seller After Refi 4 921 0 2004-02-23
Liens And Wraparound Mortgage 0 1068 0 2004-02-23
Due-On-Sale Clause 2 1090 0 2004-02-23
Advice Needed Quickly! Please!! 16 1826 0 2004-02-23
How To Avoid Due On Sale Clause W/seller Financing? 8 1297 0 2004-02-22
Seasoning And SubTo 2 1030 0 2004-02-21
Can Anyone Tell Me If This Will Work 2 1036 0 2004-02-21
Getting A New Buyer... 8 1344 0 2004-02-20
Sub-To From Investment Co? 8 1118 0 2004-02-20
Possible 1st Deal, Please Evaluate 7 1280 0 2004-02-19
Do You Have More Leverage In A Subject-to Deal If You Offer To Re-fi ASAP? 7 1450 0 2004-02-19
Setting Up A Trust 1 1017 0 2004-02-19
Complications If RE Licensed 5 1130 0 2004-02-19
I Know I'm Not The Only One.... 22 2049 0 2004-02-19
Finally Found One With Equity. 1 1032 0 2004-02-19
Recoding Cloud Or Interest In Title - Who Has Done It? 6 956 0 2004-02-19
CFD Vs Subject To 6 967 0 2004-02-18
Using PoA To Sign Yourself Over The Deed? 5 1073 0 2004-02-18
Number 2 (or 3) Subto Seller Objection 8 1061 0 2004-02-17
Due On Sale And A Wrap.need Help! 15 2200 0 2004-02-17
Looking For Contract Or Addendum... 2 988 0 2004-02-16
3 Offers 2 1066 0 2004-02-16
Using A Family Trust To Hide From Due On Sale. Where's The Money? 3 1242 0 2004-02-16
Tomorrow Is My Last Day At Work......... 12 1492 0 2004-02-15
Can Buyer Sell If Buying On CFD 4 933 0 2004-02-14
Hard Ball Betrween Sellar And Buyer 15 1941 0 2004-02-14
Protecting Seller's Debt/Equity Ratio 0 809 0 2004-02-13
Sub2 Contract 1 1373 0 2004-02-13
3 Questions For Pro's Only 7 1299 0 2004-02-13
L/O Vs. CFD 2 1091 0 2004-02-13
Please Take A Look At This Deal And Comment. 19 2500 0 2004-02-13
What Can I Tell The Seller? 3 1272 0 2004-02-12
Title 1 1029 0 2004-02-12
What Will Happen... 3 1038 0 2004-02-12
Newbie Looking For AZ REI Group! 2 983 0 2004-02-11
Calling On Ads 2 927 0 2004-02-11
Closing Costs, What Part Of The Process Can I Do Myself? 9 1320 0 2004-02-11
How To Understand A Deed? 4 1009 0 2004-02-11
John Locke's Course 6 1662 0 2004-02-11
Necessary Forms To Close Deals 13 1432 0 2004-02-11
Sub2 Joint Venture 0 1018 0 2004-02-11
SUB TO Deal ??? 3 981 0 2004-02-11
RE Agent In Sub2 Deal 3 1112 0 2004-02-10
Buying A House Sub2 And The Risk Of Foreclosure 4 1005 0 2004-02-10
LSC Suggestions? 0 1009 0 2004-02-10
John Locke, Land Trust? 7 1267 0 2004-02-10
Purchase Option 1 975 0 2004-02-10
I Hear A Lot About John's Sub To . . . 1 992 0 2004-02-10
Thoughts On A Property 3 904 0 2004-02-10
SUB2 - Why L/O And Not Retail 4 1025 0 2004-02-09
Sold That TH! 6 990 0 2004-02-09
How To Catagorize 4 1022 0 2004-02-09
Curious George 5 1067 0 2004-02-09
Subject To 1 962 0 2004-02-08
FHA SUB2 Deal 4 1199 0 2004-02-08
Can My Buyer Do This? 17 2226 0 2004-02-08
Transferring Trust Deed Into Family Trust 3 1149 0 2004-02-07
Purchasing Properties In NY 'subject To' 1 981 0 2004-02-07
Sold My First SubTo Property 12 1451 0 2004-02-06
Refinancing A Sub 2 6 1127 0 2004-02-06
Buying And Selling In Multiple States 2 993 0 2004-02-06
Sub2 Calculator 1 907 0 2004-02-06
Newbie Questions - Getting Started 3 1038 0 2004-02-06
Iv'e Taken The Plunge - I Think! 0 1168 0 2004-02-06
Homeowner's Insurance 2 1096 0 2004-02-06
Subject 2..Need Help Pls. 4 920 0 2004-02-06
Title Insurance 7 1165 0 2004-02-05
Additional Clause In Subto Agreements? 14 1352 0 2004-02-05
About Getting Tenants Through Newspaper Ads....... 1 1213 0 2004-02-05
Help With Subject To Deals 9 1551 0 2004-02-05
Sellers Protection 4 860 0 2004-02-05
My First Appointment, Help! 4 1060 0 2004-02-04
Best Investment? 0 934 0 2004-02-04
Investment Referral Companies 1 943 0 2004-02-04
Couple Questions 4 817 0 2004-02-04
Postcard/Letter Mailings 26 3666 0 2004-02-04
Benefits To The Seller 6 1037 0 2004-02-03
Got My Taxes Done. THANKS John Locke 11 1177 0 2004-02-03
Sub2 Closing Costs 10 1031 0 2004-02-03
Turst Document 2 915 0 2004-02-02
John, William, Do They Make Next Months Payment? 5 1177 0 2004-02-02
Subject To 4 1022 0 2004-02-01
Using Liability To Buy Fixer Up ? 2 867 0 2004-02-29
Buying Out A Family Member - Please Help 2 1001 0 2004-02-29
Interesting Story On Real Estate Bubble 4 1304 0 2004-02-29
FMV - REO 1 1055 0 2004-02-29
First Deal Question 5 1268 0 2004-02-29
REO Or Wholesaler? 0 891 0 2004-02-29
Renting A Property Bought With A Non-investment Mortgage 0 906 0 2004-02-29
Like A Deer Caught In Headlights 1 845 0 2004-02-29
Would This Work For Someone Who Needs Cash, But Doesn't Want To Sell? 0 1180 0 2004-02-29
Did I Find A Red Flag? 2 976 0 2004-02-29
Nervous........... 3 1074 0 2004-02-29
Short Sale-Illinois-Big $$ 0 840 0 2004-02-29
Bird Dogging Basics! 0 969 0 2004-02-29
Tax Lein Information- OR / WA 1 953 0 2004-02-29
Put Your Thinking Caps On..... Problem For You.. 6 1111 0 2004-02-28
So, How Would You Do This? 2 862 0 2004-02-28
Home Warranties? 2 1091 0 2004-02-28
What Is The Best Way To Finance This Deal? 0 999 0 2004-02-28
REI Plans & Goals 3 961 0 2004-02-28
Inspection Problem 2 1102 0 2004-02-28
Agreement For Deed? 3 896 0 2004-02-27
Currently Closing On A Condo But Want To Purchase A 2-3 Flat Within 1 Year 0 956 0 2004-02-27
First Investment Purchase ..What Addendums Clauses To Use? 2 1068 0 2004-02-27
First Investment Purchase - NEED HELP!!! 10 1253 0 2004-02-27
Finding Someone 0 875 0 2004-02-27
How Can I Make This A "0" Down Deal 9 1250 0 2004-02-27
How Do You Interview An Accountant? 1 957 0 2004-02-27
Florida Bird Dogging Question 5 1747 0 2004-02-27
New To This......help 2 1093 0 2004-02-27
Can Someone Explain The HUD Process? 4 1123 0 2004-02-27
Potential Investment -Cash Flow Vs. Appreciation 1 1150 0 2004-02-27
Sub To 2 1079 0 2004-02-27
Need To Get Creative With The Closings Costs? Please Help! 6 1073 0 2004-02-26
Need Help Negotiating On This Multi-family 0 885 0 2004-02-26
Cashing Out 2-3 Properties / Year 16 2218 0 2004-02-26
Any CPAs In The Atlanta Area With Strong REI Skills? 2 1369 0 2004-02-26
Regarding That Owner-occupied Post... 4 904 0 2004-02-26
New Jersey Property Or Owner Info??? 0 832 0 2004-02-26
Tax Question For Out-of-state Property Owners 0 1003 0 2004-02-26
Potential Deal HELP! 2 943 0 2004-02-26
Real Estate Licensing 4 1303 0 2004-02-26
Should I Work A Deal With A Contractor? 2 904 0 2004-02-26
My First Deal..closed! 4 1137 0 2004-02-26
Real Estate Problem..buyers From Hell...need Help 21 2485 0 2004-02-26
Want To Get That First Property 0 911 0 2004-02-26
Dont Let News Of The Market Frighten You 1 930 0 2004-02-26
Identifying Trends 8 1197 0 2004-02-26
Help With Jumping Through Owner-Occupied Financing Hoops... 1 1072 0 2004-02-26
How Can I Get Started In This Ridiculous Market? 4 1161 0 2004-02-26
Buying & Selling Multi-family Income Properties 3 1477 0 2004-02-26
Double Escrows 0 995 0 2004-02-26
Best Use Of New Condo? 0 891 0 2004-02-26
Good Profit Potential - Now What???? 6 1048 0 2004-02-25
How Do You Find Your Leads? 6 1358 0 2004-02-25
Leasing Now - Want To Buy The Building - Advice? 0 948 0 2004-02-25
Must You Deal With Listing Agent? 4 1087 0 2004-02-25
Using Equity To Invest 2 1001 0 2004-02-25
First Timer 3 1073 0 2004-02-25
Newbie Needs Help!!!! 2 987 0 2004-02-25
How Do You Make Sure The Mortgage Is Paid? 1 1061 0 2004-02-25
What Comes Free? 5 1076 0 2004-02-25
LAND CONTRACT 4 1310 0 2004-02-25
Help Me..should I Rent To Own? 2 1101 0 2004-02-25
Security Deed State? 3 981 0 2004-02-25
Feedback Request 2 1004 0 2004-02-25
A Topic For A Good Article... 0 1016 0 2004-02-25
My Comingling Problem 7 1304 0 2004-02-25
Mobil Home..Is This A Good Deal? 10 1724 0 2004-02-25
Birddog 2 1185 0 2004-02-24
Hey Bird Dog 0 968 0 2004-02-24
Prepay Penalties 1 928 0 2004-02-24
REI 0 728 0 2004-02-24
Advice On Townhomes In Poconos 0 943 0 2004-02-24
Shoul I Or Should I Not? 2 898 0 2004-02-24
Put Fake Ad In Paper Now What!! 4 1029 0 2004-02-24
Annual Rent Is $40K 0 849 0 2004-02-24
No Money For Commercial? 6 998 0 2004-02-24
Far 8???? 0 742 0 2004-02-24
Next Step For Newbie? 3 1180 0 2004-02-24
CASINO Effecting Housing Prices??? 3 1137 0 2004-02-24
Will Builders Owner Finance? 1 1020 0 2004-02-24
Thank You To All 0 830 0 2004-02-24
Need Advice - Agent/seller Dilemma 7 1017 0 2004-02-24
Need $100 Worth Or Resources From This Site To Retain Membership 2 1185 0 2004-02-24
Is Birddogging For The Scared Or Fearless? 7 1163 0 2004-02-24
I Had Put This Post In Lease Options But Didnt Get Any Feedback Or Help 0 1097 0 2004-02-23
Realtytrac 2 1065 0 2004-02-23
Questions To Pre Qualify Seller, Property 2 872 0 2004-02-23
Putting Down The Books And Stepping Out? 2 936 0 2004-02-23
You Don't Need Money To Do Deals!!!!! 28 3802 0 2004-02-23
How To Find Owner Of Vacant Property 4 1410 0 2004-02-23
Diamond Farming 2 1149 0 2004-02-23
Tenant Screening 0 1094 0 2004-02-23
Commercial Property For A Non Profit 1 839 0 2004-02-23
CAN ANYONE HELP? 5 1106 0 2004-02-23
Different Types Of Deeds 1 1000 0 2004-02-23
Runnig The Numbers-seing If You Got A Good Deal 8 1052 0 2004-02-23
Is This Financing Possible? 5 1020 0 2004-02-23
Advice On Educational And Online Services 10 1195 0 2004-02-23
Need Advice 1 761 0 2004-02-23
Forum Question Regarding Recruiting. 10 1447 0 2004-02-23
Anyone Knows Any Good Mentors, Seminars In MI? 0 881 0 2004-02-22
Financing Your First Deal 2 1108 0 2004-02-22
Got Lots Of Property In Cinci.... 2 890 0 2004-02-22
Sandwich Lease Or Not? 0 755 0 2004-02-22
Is Beachfront Invest Good Idea? 6 1202 0 2004-02-22
NEED HELP....QUICK 4 1004 0 2004-02-22
New England 1 1351 0 2004-02-22
Out Of State REI 1 858 0 2004-02-21
1099s Tax Question 1 935 0 2004-02-21
I Need Some Advice-please 1 1091 0 2004-02-21
Birddog Information Pack? 1 1129 0 2004-02-21
Can't Close The Deal 15 1799 0 2004-02-21
Escrow? What The Crap? 5 1032 0 2004-02-21
Title Companies 7 1016 0 2004-02-21
I Need A Mortgage Form 3 1068 0 2004-02-21
FMV? 1 1112 0 2004-02-21
A Good Start? 2 994 0 2004-02-21
William Bronchick 3 1099 0 2004-02-20
Looking For Very Good Tax Accountant In Pinellas/Pasco Counties 0 992 0 2004-02-20
Bird Dog Fee Or Agreement! 0 1264 0 2004-02-20
Another NEWBIE Needs Help!! 3 927 0 2004-02-20
Lis Pendens In Cook County, Illinois 2 1181 0 2004-02-19
Getting Into The Game In SW Florida! 5 1151 0 2004-02-19
Looking For Reputable Mortgage Company 2 889 0 2004-02-19
Looking For Info/guidance On Possible Deal 4 1122 0 2004-02-19
Advice Needed For My First Possible Deal 0 865 0 2004-02-19
Getting Started 1 1030 0 2004-02-19
Tax Law Advice 0 818 0 2004-02-19
Ballpark Birddog Fee For Unsure Investor 7 1075 0 2004-02-19
No Luck! 2 1067 0 2004-02-19
Lufos Aka Lucius 24 2564 0 2004-02-19
Calls From Tire Kickers 3 1093 0 2004-02-19
Do I Need To Close To Flip A New House 3 894 0 2004-02-19
Accounting And Tax Software 3 1000 0 2004-02-19
Double Close Help 1 882 0 2004-02-19
Have Large Buyers List Now What ? 0 867 0 2004-02-19
Is Getting A Real Estate License A Good Idea? 19 2844 0 2004-02-19
How To Structure Deal?? 0 1044 0 2004-02-18
Costs To Foreclose? 2 1032 0 2004-02-18
Birding Dogging Best Way To Advertise Services? 4 1222 0 2004-02-18
Hud-owner Occupant 6 1220 0 2004-02-18
Kinda Silly And Not Important...but Curious 8 1471 0 2004-02-18
Anyone Familar With REO World Or Asset Managment Company? 0 991 0 2004-02-18
Quality Short Sale Package 0 745 0 2004-02-18
Ideas Please. 5 1134 0 2004-02-18
I Need A Mentor 1 933 0 2004-02-18
"California Dreamin" 7 1300 0 2004-02-18
Finding An Accountant 2 842 0 2004-02-18
Vacant Property 2 827 0 2004-02-18
Need Help...what Would You Do??? 7 1041 0 2004-02-17
Possible Deal But Have Some Questions....please Help 3 966 0 2004-02-17
Investment Idea But Not Sure If Doable?? 11 1384 0 2004-02-17
Newbie Has REI Terms Questions 2 957 0 2004-02-17
Figure For Approx Market Value Based On Taxes Possible? 0 856 0 2004-02-17
Need Advice On My First Potential Deal 1 1035 0 2004-02-17
Buying From FSBO- All Cash Same As Mtg? 0 1055 0 2004-02-17
Michigan (Southeast) REI Club? 3 964 0 2004-02-17
Multi Family Semantics 4 1018 0 2004-02-17
If Buying A Home Or Condo That's Not Built Yet... 10 1280 0 2004-02-17
Agents Not Listing, Only Buying 8 1119 0 2004-02-17
Public Records 1 1025 0 2004-02-17
Looking For An Old Reply From A Mortgage Investor 5 1007 0 2004-02-17
Please Advise On This Possible Deal 0 902 0 2004-02-17
HELP!!!! 8 1130 0 2004-02-16
Just Market Value Vs. Fair Market Value? 4 1110 0 2004-02-16
Question About Site Membership And About A Program 1 970 0 2004-02-16
First Time Investment Property 2 1242 0 2004-02-16
Tech Supp-Can't Find One Of My Questions 0 872 0 2004-02-16
Bird Dog Contract 11 1834 0 2004-02-16
Suggestions To Locate Pvt$ On Lots - Lender Finder No Help 0 929 0 2004-02-16
Distribution Of Profits 0 855 0 2004-02-15
Some Much Info! Where To Start? 1 992 0 2004-02-15
Seems Like A Silly Question 1 855 0 2004-02-15
TAX QUESTION 0 879 0 2004-02-15
What If There Is No Local REI Club?? 2 1077 0 2004-02-15
How Could I Pull Of This Great Buy? 6 991 0 2004-02-15
HELP! I'm New And Need A Lot Of Guidance! 22 2740 0 2004-02-14
Pros And Cons To Apt/condo Investing 3 1264 0 2004-02-14
Would You Use A Credit Card? 2 934 0 2004-02-14
Bird Dog Contracts 1 1155 0 2004-02-14
Investment Question On A Downtown Condo 3 917 0 2004-02-14
How To Get Information On A Boarded Up House? 4 1184 0 2004-02-14
~Buying Income Property~ 2 1307 0 2004-02-14
SoCal CPA? 0 763 0 2004-02-14
Starting A LLC Or Corp What To Do In The Meantime? 4 1055 0 2004-02-14
Getting Tenants 4 975 0 2004-02-14
How Does This Work? 1 884 0 2004-02-14
So I'm Going To Go Look At My First Property Tonight 5 1160 0 2004-02-14
Financing For Home In Mexico 0 904 0 2004-02-13
Newbie With Good Leads Looking For Seed Money 0 905 0 2004-02-13
Need Help Getting Started 2 1224 0 2004-02-13
Owner Financed Sale Question 2 980 0 2004-02-13
Has Anyone Used A Group Mailer Program? 0 947 0 2004-02-13
I Need And "out" Clause In My Offer 8 1115 0 2004-02-13
Should I Sell Out Or Rent Out? 15 2055 0 2004-02-13
Probate? 11 1032 0 2004-02-13
Help With Tenant Selection 7 1090 0 2004-02-13
Newbie Question On Getting Started 0 979 0 2004-02-13
Financing Expert Needed!!!!!!! 5 980 0 2004-02-13
Stupid Question But Something I Don't Get 2 926 0 2004-02-13
Newbie Needs Help.... 1 936 0 2004-02-13
I'm Pre-approved And Confused... 0 925 0 2004-02-13
Hola! New Guy From Central Illinois... 0 973 0 2004-02-13
Probate Partner 0 847 0 2004-02-13
Help!!! 2 Houses, 1 Deal. Creative Solution? 0 839 0 2004-02-13
New Sheets Student In Houston, TX 1 888 0 2004-02-12
Newbie Help On Materials To Read 1 918 0 2004-02-12
Credit Scores Are Freaky! 6 981 0 2004-02-12
Hard Money Lenders And The Recently Self-Employed 9 1285 0 2004-02-12
What Works? 17 2299 0 2004-02-12
Bad Credit And Dreams Of Getting Debt Free And Into Real Estate 10 1837 0 2004-02-12
Do Real Estate Agents Really Help 6 1084 0 2004-02-12
Current Steps Of Improvement And Advice To Further Sucess 1 1149 0 2004-02-11
How Do You Make Sure You Get Paid For Bird Dogging 3 1123 0 2004-02-11
Assigning Contracts???? HELP!!! 5 1186 0 2004-02-11
Don't Kill Me But....What Is Bird Dogging??? 15 2120 0 2004-02-11
Newbie Question 2 957 0 2004-02-11
Am I Prepared To Take The Plunge? 5 1084 0 2004-02-11
FSBO List 3 885 0 2004-02-11
Where Am I???? 1 862 0 2004-02-11
Rookie Investor Seeking Advice On New York Investing Opportunities 2 1089 0 2004-02-11
Difference Between SFH And Multi-Family 5 971 0 2004-02-11
Possible 1st Time Deal - Advice Needed 5 921 0 2004-02-11
Buying Vacant Lots To Rent To Mobile Home Owners. Good Or Bad Idea? 0 1269 0 2004-02-11
Little Help 1 849 0 2004-02-11
Buying Rental Property Out Of My Area 9 1283 0 2004-02-11
What Is A Bird-Dog Looking For??? I Need Some Reading Material 4 1096 0 2004-02-11
Property Locators 1 905 0 2004-02-11
Will Lease Improve Value? 5 1076 0 2004-02-11
Too Many Options To Choose From?!? 2 752 0 2004-02-11
I Was Told This Is Illegal. HUH?! 41 3189 0 2004-02-11
Just Starting - Need Tax Lien Advice 5 845 0 2004-02-11
Clubs 0 793 0 2004-02-10
Where Is Best Place To Find Independent Real Estate Investors? 5 1082 0 2004-02-10
Hmmmmm. What Should I Do Next? 5 871 0 2004-02-10
Bird Dogging 101 8 1555 0 2004-02-10
Help Renting Units 4 1234 0 2004-02-10
What's Better: Lease/option Or Owner Financing? 3 826 0 2004-02-10
Sec 8 Info 10 1300 0 2004-02-09
Public Records 2 1022 0 2004-02-09
CAP Rate And What Would Be A Good Price On Triplex? 7 975 0 2004-02-09
REI Guru's 5 882 0 2004-02-09
Putting Together A CRE Team 1 889 0 2004-02-09
Making An Offer--when? 2 855 0 2004-02-09
HELP, I Am New At This And Am Confuse On Trustee Sales 4 1023 0 2004-02-09
Commercial Property Question 3 759 0 2004-02-09
Bird Dogging.....Why Start Out There? 2 897 0 2004-02-09
Pinellas County ,florida 0 892 0 2004-02-09
Thoughts On A Property 1 800 0 2004-02-09
Thank You Tcinvestor.com 1 892 0 2004-02-08
Wanting To Start Bird Dogging, But No Clubs Or Networking Opportunities 2 1069 0 2004-02-08
Bird Dogging 0 920 0 2004-02-08
Life Estate For Sale??? What Is This? 1 820 0 2004-02-07
Frustrated And Don't Know Where To Start 4 1352 0 2004-02-07
Found A Motivated Seller...What Are The 1st Questions To Ask? 0 849 0 2004-02-07
Which Road To Take 11 1041 0 2004-02-07
Is This Ethical? 5 1025 0 2004-02-07
Filing A Memorandum At The Courthouse 1 844 0 2004-02-07
Bird-dogging 1 1402 0 2004-02-07
Help Getting A Good CPA For REI 5 1045 0 2004-02-07
Preforeclosure 2 955 0 2004-02-07
Land Contract? 2 748 0 2004-02-07
Purchase Offer 1 988 0 2004-02-06
Looking 4 RE Agent In (North NJ) Area 0 1057 0 2004-02-06
Why Bird Dog? 3 892 0 2004-02-06
New And I Live In A Very Profitable Area 1 813 0 2004-02-06
Is This A Good Deal 0 833 0 2004-02-06
Newbie Question 2 899 0 2004-02-06
Want To Introduce Myself And Ask A Few Questions 2 925 0 2004-02-06
Owner Financing Help 1 831 0 2004-02-06
About Top Jump In 1 995 0 2004-02-06
Need Advice On Sellig Myself To Mentors 9 1163 0 2004-02-06
REI Clubs 1 928 0 2004-02-06
RE Agent Question 3 888 0 2004-02-06
How In The World Do I Do This? 9 1080 0 2004-02-06
"Getting Started In REI" Checklist, Did I Miss Anything? 2 1250 0 2004-02-06
Real Estate Website 6 1253 0 2004-02-06
Mr. Deeds 0 747 0 2004-02-05
When You Make Offers So Low They Dont Call You Back... 7 1159 0 2004-02-05
What To Look For? 0 794 0 2004-02-05
Local Bank REO Departments Aim To Please 0 1094 0 2004-02-05
Feedback On First Am Res? 4 786 0 2004-02-05
Best Materials To Begin With 8 1075 0 2004-02-05
Getting My Credit Score 7 1075 0 2004-02-05
BIRDDOG DESCRIPTION 7 1229 0 2004-02-05
Selling Without An Attorny 4 1017 0 2004-02-05
Hud Home 1 812 0 2004-02-05
Beach / Resort Rental Property - Any Thoughts? 2 840 0 2004-02-05
Just Curious........ 25 2287 0 2004-02-05
Best Way To Assemble Investor List And Hard Money Lenders 0 950 0 2004-02-05
To LLC Or Not To LLC 4 1004 0 2004-02-05
Northwest Florida Bird-dog/REA Looking For Investors... 1 1059 0 2004-02-05
REI Club 6 1080 0 2004-02-05
Experienced BirdDog Looking For Investors In NC And SW Fl 3 965 0 2004-02-05
Listening To Ya' Lufos 6 921 0 2004-02-05
Property Record Shows No Date Or Purchase Price 11 1172 0 2004-02-05
Birddog Article 6 974 0 2004-02-05
Money Lenders 5 862 0 2004-02-05
Is This A Scam? 12 2366 0 2004-02-04
Condo Buyout 0 877 0 2004-02-04
NOTICE OF DEFAULT 2 786 0 2004-02-04
As A Newbie In REI, At What Point Do You Line Up Lenders? 3 979 0 2004-02-04
Help: Trying To Work Out A Financial Base..any Input? 2 942 0 2004-02-04
I Need Friendly Advice! A Thumbnail Sketch! 0 874 0 2004-02-04
WooHoo! Did A Deal...now What? 1 837 0 2004-02-04
Who Wants A Mentor? Not Me! 17 2212 0 2004-02-04
Need Advice 5 973 0 2004-02-04
Unsolicited Bids 0 756 0 2004-02-04
Public Source For Past Sale Prices And Property Info. 6 1214 0 2004-02-04
I Am Getting More Confused The More I Read..HELP!! 3 1414 0 2004-02-04
Newbie Trying To Get Past The INTIMIDATION Factor! 6 1187 0 2004-02-04
Deal Analysis Form 0 824 0 2004-02-04
Where Would I Post This Info? 3 770 0 2004-02-04
Developer Unloading Too Many Properties!!! 6 988 0 2004-02-04
TCI Jail Question... 3 972 0 2004-02-04
Can The Seller Break The Rea Listing Contract? 6 1022 0 2004-02-04
Wholesaling/birddog Difference? 0 902 0 2004-02-04
Bird Dog Question 4 1077 0 2004-02-04
This Is Why We Check And Double Check. 0 898 0 2004-02-04
New From New York 8 1233 0 2004-02-04
Birddog Question 2 1000 0 2004-02-04
Illegal Birdogging 4 1323 0 2004-02-04
Lenders 0 826 0 2004-02-03
Contract Question 2 921 0 2004-02-03
Information For NOD And NOS 0 860 0 2004-02-03
Moving To Vegas...Need Some Advice And Help! 8 1021 0 2004-02-03
Tulsa Birddog 1 827 0 2004-02-03
Here's The Deal. 2 920 0 2004-02-03
Deal Analysis 2 3 810 0 2004-02-03
What To Buy For First Property? 4 919 0 2004-02-03
Rookie Innvestor In Need Of Some Guidance 3 1367 0 2004-02-03
Help With Owner Financing, Please! 2 866 0 2004-02-03
HUD Rules In Baltimore City 4 982 0 2004-02-03
Question On Contract 0 852 0 2004-02-03
Contract???? 4 997 0 2004-02-03
Social Security Number On Hud 1 2 995 0 2004-02-03
SHORT SALE WITH HOMEQ 5 3256 0 2004-02-03
Enlightenment On Probate Property 6 932 0 2004-02-03
Do I Stay Licensed Or Pursue Foreclosure Investing Full Time? 9 1043 0 2004-02-02
What Can I Charge The Bank To Manage These Houses?? 0 895 0 2004-02-02
Newbie Query About My $$ And What To Do 6 1027 0 2004-02-02
Newbie Requires Clarification!! 2 970 0 2004-02-02
Comps????????? 39 3554 0 2004-02-02
Beginner Looking For Good Books 8 1011 0 2004-02-02
Lender Issues With Buying And Selling 5 971 0 2004-02-02
"Proof Of Funds Or Prequal Letter" - Is This A Filter? 3 1246 0 2004-02-02
Deal Analysis 1 4 900 0 2004-02-02
What If I Don't Have Any Cash? 8 1207 0 2004-02-02
Protecting Yourself If You Did Your Own Rehabbing 7 932 0 2004-02-02
Why Are You Guys Not Watching The Super Bowl? 1 861 0 2004-02-02
Thoughts On Getting Started 2 1011 0 2004-02-01
SHORT SALE TO BUYER THEN DEED BACK TO OWNERS 1 1069 0 2004-02-01
Advice On 6 Family 3 1166 0 2004-02-29
Need Help Negotiating On This Multi-family 1 908 0 2004-02-26
Second Opinion Re: 5 Unit. 4 1014 0 2004-02-26
What Would This Be Worth To You? 5 1141 0 2004-02-26
Church For Sale - Possible Multi-family?? 14 1560 0 2004-02-26
Confused About The Numbers 10 1270 0 2004-02-26
Need Advice ASAP. 2 910 0 2004-02-26
Estimate Management Requirements 1 1160 0 2004-02-25
Neophyte 1 976 0 2004-02-24
Rehab Financing For Multi Unit !! 1 948 0 2004-02-23
Seminar 1 938 0 2004-02-23
What Do You Guys Think About This Deal 1 1022 0 2004-02-21
Things Happen For A Reason 6 1131 0 2004-02-20
Is This A Good Deal?......HELP 3 815 0 2004-02-20
Any Ideas How I Can Handle This? 8 1098 0 2004-02-20
Would Like Some Input On This Deal - Any Insight? 1 1053 0 2004-02-19
I Need More Books To Read........ 7 1081 0 2004-02-19
Advice On 4family Numbers 7 1226 0 2004-02-18
If You Could Start Over Right Now.... 5 1281 0 2004-02-18
Advice Requested On Multifamily Purchase 13 1414 0 2004-02-18
Loosing Job, Need Income 11 1462 0 2004-02-17
DEAL WORTH DOING? Lufos ? John Locke? 14 1433 0 2004-02-17
REI Math 3 1065 0 2004-02-17
Wholesaling Multi-families 11 1149 0 2004-02-17
How To Write Seller Carryback Notes To Be Forgiven? 6 1533 0 2004-02-17
Located Owner Of 2 Buildings, Now What? 5 807 0 2004-02-16
Can't Seem To Purchase My First Property. 2 1186 0 2004-02-15
Negotiating W/ The Seller's Agent... 3 969 0 2004-02-14
Multi Family Investing Strategy 10 1409 0 2004-02-14
Do I Need Good Income To Make A Multi Purchase? 12 1703 0 2004-02-12
Lenders And Multifamily 13 1644 0 2004-02-12
Help In Analysis? 11 1236 0 2004-02-12
Have I Missed The Market? 21 2674 0 2004-02-11
TAX CREDIT Status Under Review By IRS 0 1052 0 2004-02-10
NEED SOFTWARE ADVICE 4 1169 0 2004-02-10
Question About Renter Headaches? 2 968 0 2004-02-09
Met With The Seller Today 0 895 0 2004-02-07
Any Opinions On Multi Guru John Dessauer??? 0 887 0 2004-02-06
Starting Up Group Homes 1 878 0 2004-02-06
85% For Multi-family 5 Plus Units, ARMs As Low As 3% 1 1714 0 2004-02-06
22 Unit Building 12 1532 0 2004-02-06
Need Advice On Price Reduction 6 877 0 2004-02-05
Modular Homes 10 1649 0 2004-02-04
What Is NOI? 6 1041 0 2004-02-04
Is This A Deal Or A Problem Waiting To Happen? 6 1035 0 2004-02-03
Good Formulas For Analyzing Properties... 3 1310 0 2004-02-03
Buying First Home 5 880 0 2004-02-02
Which Is Best? 2 805 0 2004-02-02
Financing Multi-famliy 2-4 Units 3 1179 0 2004-02-01
Does This Rental Unit Make Sense 5 1253 0 2004-02-01
Vacant Home Ad 0 919 0 2004-02-28
FSBO - Listing In The MLS 5 1126 0 2004-02-28
Business Cards 4 1265 0 2004-02-28
Business Cards 12 1816 0 2004-02-26
Marketing To Fed Up Landlords 5 1149 0 2004-02-25
How And Where? 0 841 0 2004-02-24
Postcards Software 2 1146 0 2004-02-23
Marketing Question, Is It A Good Idea? 1 885 0 2004-02-23
Looking For An Investor Cant Find Out Were To Place An Ad 1 976 0 2004-02-23
Vacant House 6 1170 0 2004-02-23
2 Types Of Business Cards 7 1511 0 2004-02-23
Inspection Costs 2 855 0 2004-02-22
How Can I List My Home On The MLS? 3 962 0 2004-02-22
Homes Without Basements? 8 1024 0 2004-02-21
Marketing For Private Investors? 6 1336 0 2004-02-19
Demographic Information 2 1086 0 2004-02-15
Trying To Buy A House For Cheap How Whould I Do This? 5 1316 0 2004-02-13
Marketing??? 2 989 0 2004-02-12
Got Pulled Over Tonight Putting Out Bandit Signs (TX) 10 1485 0 2004-02-12
MARKETING FOR PROBATE PROPERTIES! 1 1101 0 2004-02-11
Laws About Signs 2 1033 0 2004-02-10
Buying Property At The Courthouse 3 927 0 2004-02-09
Question For Atlanta Investors 0 986 0 2004-02-08
How Is This Idea? 7 1002 0 2004-02-06
Section Of Paper To Place "We Buy Houses" Ad 7 1573 0 2004-02-06
How To Seal The Deal Without Over Paying !!! 2 983 0 2004-02-06
HELP!!! 2 1013 0 2004-02-06
It's All In The Name....... 6 1003 0 2004-02-06
Do I Have To Seperate 1 903 0 2004-02-06
Best Way To Market Properties. 6 1200 0 2004-02-06
Flyers That Look Like $100 Bills? 18 3274 0 2004-02-06
Contracts And Forms 4 991 0 2004-02-06
Ads For Private Money Or Investors 3 1027 0 2004-02-06
Call For Free Report Verbiage 7 913 0 2004-02-06
Newspaper Classifieds Vs. Thrifty Nickle (small, Free, Ad Papers) 10 1624 0 2004-02-06
How Do I Reel This One In? 5 1016 0 2004-02-05
Anyone Tried This Ad? 8 1665 0 2004-02-05
"i Buy Pretty Houses" Newspaper Ad 8 1185 0 2004-02-05
A Better Suggestion 0 1013 0 2004-02-05
Marketing 0 975 0 2004-02-03
Investor Wanted!! 5 1233 0 2004-02-03
Credit Repair $1000??? 8 1094 0 2004-02-29
Paying Bills 3 1177 0 2004-02-28
Deleting A Derogatory Item 17 2544 0 2004-02-28
Greenspan Speaks! 1 More Reason To Get Involved In RE! 8 1078 0 2004-02-27
Credit Counseling Services 14 1623 0 2004-02-24
How Does A Paid Off House Affect Credit If Yours Is Not Very Good? 10 1329 0 2004-02-24
Stuck! Need To Reduce Debt 5 1195 0 2004-02-24
Cc 2 1042 0 2004-02-24
Collection Question 4 976 0 2004-02-23
Starting With Cleaning Up Old Addressess? 8 1091 0 2004-02-23
Credit Card Settlement 14 1323 0 2004-02-23
BK Of Another Showing Up On Credit?? 4 853 0 2004-02-21
Is There Something I Can Do? 2 761 0 2004-02-21
Need FICO Scores 16 2294 0 2004-02-20
Dave Ramsey 6 1099 0 2004-02-19
Credit Challanges 2 1077 0 2004-02-17
How Soon Can We Buy A Home After Chapter 7 12 1934 0 2004-02-17
I See The Bank Tommorrow, Your Thoughts 2 931 0 2004-02-16
Question Before Buying A House 4 931 0 2004-02-16
What Is A PLUS Score? 7 1055 0 2004-02-16
Quick ? 2 854 0 2004-02-16
Creditor Still Reporting After B/K 8 1369 0 2004-02-16
FICO Score Vs. Interest Rate. 13 1178 0 2004-02-16
How Do I Raise A 640 FICO Score To Above 700? 14 2421 0 2004-02-16
Paying Down Debt. Any Suggestions? 13 1518 0 2004-02-16
620 Fico Now A 650 Fico...what Are My Chances? 1 1067 0 2004-02-14
What's A Good Credit Score For REI? 8 1365 0 2004-02-13
Looking For Advice 0 834 0 2004-02-07
Should This Still Show On My Credit Report? 3 895 0 2004-02-05
No Credit, Almost Worse Then Bad Credit! 13 1154 0 2004-02-04
Newbie, Cjheath Thanks 0 885 0 2004-02-03
Windfall, Pay Off Credit Cards Or Invest? 9 2305 0 2004-02-02
Elminate Or Terminate Unsecured Debt? 1 883 0 2004-02-02
First Post! Credit Card Balance Questions. 0 847 0 2004-02-02
Needing Some Advice Plz 4 939 0 2004-02-01
Foreclosure Sale In 3 Days 3 870 0 2004-02-01
Step By Step 2 1010 0 2004-02-27
Financing Land, Is That Feasible? 3 1201 0 2004-02-26
Any Big Savings Building Modulars Over Stick-builts? 24 3074 0 2004-02-25
Financing Newly Built Homes? 0 918 0 2004-02-24
N.j Newbie Getting Involved In My First Modular Homes 6 1133 0 2004-02-24
Putnam County, FL. 2 872 0 2004-02-24
Utah Comps 3 875 0 2004-02-24
2nd Mortgage On Vacant Land??? 0 795 0 2004-02-23
Vacation Homes 1 918 0 2004-02-23
Hard Money Lender In So. Utah 0 914 0 2004-02-23
Need Advice/opinions On Choosing/purchasing Land And House Building Options. 4 1464 0 2004-02-22
Advice As To Finding Serious Investors In The Boston Market In Builing Homes. 1 1145 0 2004-02-21
What Do I Do Next?? 6 1119 0 2004-02-20
Storage Buildings 3 1256 0 2004-02-20
I Want To Tear Down This House 5 1161 0 2004-02-19
Steps On Selling Raw Land 6 1700 0 2004-02-19
High-rise Condo 4 946 0 2004-02-19
What Do You Think Of These Numbers? 3 1236 0 2004-02-18
Overcoming A Lack Of Age/experience 4 1097 0 2004-02-18
Partnering With Contractor On High $ Spec Home 16 2074 0 2004-02-17
Newbie With Questions On Devolpment 1 1101 0 2004-02-16
Looking For A Good Builder To Deal With... 0 945 0 2004-02-11
Rental Conversion 5 1056 0 2004-02-10
Building My First Home 7 1136 0 2004-02-09
Looking To Build A House In Bay Area 5 1277 0 2004-02-08
Develop Land In Michigan - Newbie Needs Help! 3 960 0 2004-02-05
Vacant Family Land Confusion?? 2 912 0 2004-02-04
Advertising And Selling My Ifrst Spec Home. 3 1080 0 2004-02-01
How To L/O With No $$ Down 2 1228 0 2004-02-29
Assign A Lease-Option 10 1243 0 2004-02-28
Lease Option A Business? 3 875 0 2004-02-27
What Would Be The Best Option? 3 914 0 2004-02-27
L/O Questions/ Personal Property 0 719 0 2004-02-27
Need Biz Plan Sample 0 888 0 2004-02-26
Lease Option - Tenant Buyers 0 920 0 2004-02-26
Experience With TenantStream? 2 1399 0 2004-02-26
Tenant Stream 8 1762 0 2004-02-26
Can You L/O A 389k Home? 3 889 0 2004-02-26
Who Is Liable 0 737 0 2004-02-26
Lease Option Mortgage Forms 3 1005 0 2004-02-26
Clearly Getting Out Of A Deal. 6 1251 0 2004-02-26
Possible LO Deal 0 1006 0 2004-02-25
Can You Lease A Property On A Lease Option And Then Subrent It To Multiple Renters? 2 1172 0 2004-02-25
Whats The Best Direction 5 917 0 2004-02-25
Should I Be A L/O Purchaser In This Deal???? 0 788 0 2004-02-25
Wanted! The Best Ads For Finding Motivated Sellers 5 1479 0 2004-02-25
Lease Option Language 0 866 0 2004-02-25
Lease Option Through A Real Estate Agent 0 901 0 2004-02-24
Lease-option Document 1 1111 0 2004-02-24
Real Estate Agent /investor 3 919 0 2004-02-24
LLC 0 783 0 2004-02-24
Lease/Option A Lower Monthly Payment Than Seller Pays Bank 5 1001 0 2004-02-24
My First Lease Option Need Help 3 916 0 2004-02-24
Question 5 873 0 2004-02-23
Rent, Lease/option Or Sell???Need Advice BAD!!! 4 1043 0 2004-02-23
Don't Have A Clue...HELP Best Course/book For.. 8 1259 0 2004-02-22
Opportunity To Get My Feet Wet? 1 900 0 2004-02-21
Showing A Property Prior To Closing 15 1821 0 2004-02-21
Confused About Lease Option Closing 3 1057 0 2004-02-20
Newbie Needs HELP!!! 0 846 0 2004-02-20
The ABC Of Renting To Own? 9 1903 0 2004-02-19
Looking To Lease Option Or Wholesale A House In Fairport Ohio 0 772 0 2004-02-19
Am I Ready Or Am I Missing Something? 17 2426 0 2004-02-19
Can I Spend The Option Money? 14 1631 0 2004-02-19
I Need A Property Cash Flow Tool? 5 962 0 2004-02-19
Help.. I Have A L/O Buyer... W/o A L/O Property... 6 1184 0 2004-02-17
Real Estate Pro's Only 5 1298 0 2004-02-16
Lease To Own Agreements 4 1272 0 2004-02-14
Best Day(s) To Place House For Sale Ads? 1 967 0 2004-02-14
What If The Note Holder Dies And You Have The Dee? 1 960 0 2004-02-13
Seller Finance 1 1197 0 2004-02-13
Lease Option Title Seasoning 0 946 0 2004-02-12
Paying Capitol Gains On Investment Property Sold 0 1207 0 2004-02-11
AD Kessler Mentoring Program? 5 1111 0 2004-02-11
Need To Find Proper Paperwork And REI Attorney 2 953 0 2004-02-11
Steal Tenant-buyers From Apartments? 4 959 0 2004-02-09
If I Buy A House For 90k???? 5 1066 0 2004-02-08
Profitability Of Lease2purchase Investing In Germany 0 857 0 2004-02-08
Unclear About Subtenant L/O Contract 0 935 0 2004-02-08
Lease Option Strategy 3 1251 0 2004-02-08
Getting Paid At Termination Of The Lease 1 1221 0 2004-02-07
Just Want To Protect Myself... 0 911 0 2004-02-07
Lease Options 2 1066 0 2004-02-07
Lease Option Texas/California? 5 1315 0 2004-02-07
How Do I Structure A Lease-option Deal... 2 1186 0 2004-02-07
Lease Option Vs Contract For Deed 5 1313 0 2004-02-07
Mailing To Soon To Be Expired MLS Listings 2 1385 0 2004-02-06
Pre Forclousure Deal Nead Short Sale Advice 2 1128 0 2004-02-06
Atlanta Investors! 1 1006 0 2004-02-06
Rehabbing 1 877 0 2004-02-06
Regarding Topics From Earlier Today 1 727 0 2004-02-05
Investors 2 868 0 2004-02-04
How To Make This Work 4 1039 0 2004-02-04
Should I Lease / Option From A Couple That Is Divorcing? 9 1364 0 2004-02-04
Closing In On 1st Deal, But May Have Hit A Snag 6 1027 0 2004-02-03
Tenant Buyers - Source 3 972 0 2004-02-03
Lease Option 2 Family 2 907 0 2004-02-02
HOA Dues 3 1017 0 2004-02-02
Money Needed For Rehab 5 950 0 2004-02-02
Buying OWC Deals - Feedback On This One? 1 862 0 2004-02-02
Evaluating Property Management Companies 2 872 0 2004-02-29
Previous Landlord??? 1 813 0 2004-02-29
Calculating Expenses On Rental Peoperty 3 1234 0 2004-02-28
Rental Property Insurance Nightmare 8 1455 0 2004-02-28
HOW MUCH NOTICE? 3 1222 0 2004-02-28
Give It A GO, Or Hire A PRO? 7 1076 0 2004-02-28
Do You Charge A Renter's Application Fee 11 1307 0 2004-02-27
Got A Possible Tenant, Need Some Help Please 7 1106 0 2004-02-26
ProForma-nator Says No - Am I Crazy? 5 1262 0 2004-02-26
Section 8 Question 6 1370 0 2004-02-25
Maintenance Agreement 4 894 0 2004-02-25
Help Clarify? 7 1134 0 2004-02-25
Set Asides For Rental Repairs? 4 1332 0 2004-02-24
Best Way To Proceed Next? 2 868 0 2004-02-23
Pets And Renting 5 945 0 2004-02-23
Rental Insurance 11 1171 0 2004-02-23
Multiple Single Rental Unit Purchases 8 1217 0 2004-02-23
Running The Numbers??? 3 988 0 2004-02-23
Spanish Agreements 3 915 0 2004-02-22
How Do I Figure This Number Out? 11 1243 0 2004-02-22
Debt Coverage Ratio: What Is The Range? 3 1005 0 2004-02-21
Comments On Foremost For Landlord's Policy? 3 1103 0 2004-02-21
License To Manage In CA? 8 888 0 2004-02-19
First Contact With Potential Tenant 6 1170 0 2004-02-19
High Vacancy Rates, Falling Rents 8 1145 0 2004-02-19
Move Out Procedure 1 912 0 2004-02-19
My First Rental: Now What? 3 1096 0 2004-02-19
Rental Property Evaluation!!! 18 2709 0 2004-02-18
Property Management???!!!! 13 1292 0 2004-02-17
Purchased A 4 Unit, 2 Units Are Already Rented Do I Need A New Lease Agreement? 8 1158 0 2004-02-16
Tenents And Guns 12 1088 0 2004-02-16
Spare Key 3 913 0 2004-02-16
Determining Proper Heating Capacity... 0 927 0 2004-02-15
What Is NOI? 2 926 0 2004-02-14
100% LTV HELOC Or Cash Out 1 894 0 2004-02-14
Property Management In Upstate NY 0 814 0 2004-02-14
I Don't Speak Spanish. What Do I Do? 16 1986 0 2004-02-14
Setting Rents By Turnover 3 938 0 2004-02-13
Calif. Lanlord Needs Help Evicting Tenant. 2 967 0 2004-02-13
Cash Or Support Our Troops? 17 1962 0 2004-02-13
Pricing Rental Property 1 1100 0 2004-02-12
Section 8 1 977 0 2004-02-12
Fees For Late Rent Payment 3 1044 0 2004-02-12
Renter Application Form. 1 1036 0 2004-02-11
Bestway To Rent And Rental Contract 1 1138 0 2004-02-11
Big Tenant Problem - Help!! 8 1262 0 2004-02-11
Section 8 Housing In Metro-Detroit! 1 1117 0 2004-02-11
How Do You Figure Cap Rate? 1 1164 0 2004-02-11
Buying Rental Properties 1 980 0 2004-02-11
Receipt? 4 1077 0 2004-02-11
Is This A Good Idea? 5 1008 0 2004-02-10
Negotiable Security Deposit 9 922 0 2004-02-09
My Plan 58 5760 0 2004-02-08
Showing A Rental Unit 9 1780 0 2004-02-06
Help Wanted: Markets For Good Multi-Unit Payout 0 963 0 2004-02-05
Section 8 8 1255 0 2004-02-05
Old, Lower Income Rental Units 12 1548 0 2004-02-05
Two Extreme Types Of Rental Properties. 5 986 0 2004-02-05
Need Help Fast--trying To Put A Deal Together! 2 946 0 2004-02-04
How Do You Properly Evaluate A Rental??? 3 1236 0 2004-02-03
Landlording And Bankruptcey 1 924 0 2004-02-03
Planning Stage 7 1125 0 2004-02-02
Dishwashers In Rentals? 7 1071 0 2004-02-01
ANYONE Been Hit With Dealer Status? 2 1052 0 2004-02-29
1031 Possible? 7 1048 0 2004-02-28
Capital Gains Avoidance 11 1277 0 2004-02-28
What Is A 593 Tax Mean 1 1040 0 2004-02-27
First Time Home Buyer Do I Pay Tax 1 825 0 2004-02-27
Splitting Excess Land And Residence/ Tax Consequenses 2 988 0 2004-02-26
Tax Implications Of S-corp Vs. LLC 8 1552 0 2004-02-26
What % Is Capital Gain Tax 4 1114 0 2004-02-25
Effect Death Has On Rental Property Cost-basis 3 1027 0 2004-02-25
Passive Losses Can Only Be Deducted From Passive Income 3 1085 0 2004-02-25
Taxes From Sale / Buyer With No Money Down 1 919 0 2004-02-24
Real Estate Professional Status? 1 954 0 2004-02-24
CPA Says No Interest Deduction 38 3921 0 2004-02-24
Rental Capitol Gains 3 1065 0 2004-02-24
Any Ways Of Getting Around Capital Gains/Income Tax? 2 931 0 2004-02-24
My "primary-1031-primary" Story 3 1006 0 2004-02-23
Capital Gains Taxes? 17 2613 0 2004-02-22
Selling Land To A Related Entity That Will Develop It? 0 1022 0 2004-02-22
Question On Capital Gains Rates After Transfer To Trust/LLC 3 1344 0 2004-02-20
simultaneous/ double close tax implications???? 12 1502 0 2004-02-19
Partnership To Partner 4 889 0 2004-02-19
LLC Treated As Ab S Or C Corp????? 15 2002 0 2004-02-19
Sch C Vs. Sch E 0 1027 0 2004-02-17
CG Taxes On Investment Property 3 859 0 2004-02-17
Contract For Deed 1 999 0 2004-02-17
Capital Gains - Once In A Life Time / Age Limit? 5 1089 0 2004-02-17
~ Schedule E Averages~ 4 1085 0 2004-02-16
New Furnace 6 1136 0 2004-02-16
Is This Allowed? 7 1603 0 2004-02-16
Tax Deduction On A Line Of Credit 2 1035 0 2004-02-15
Saving On Capital Gains Taxes 2 899 0 2004-02-15
Deduction Of Assessments 2 822 0 2004-02-14
Depreciation!! 2 1130 0 2004-02-13
Rehab Profits Vs. Stock Market Losses 7 1358 0 2004-02-12
Can I Rent Space To My Homebased Business? What Percent? 3 1085 0 2004-02-12
Inherited Property And Taxable Gains 1 950 0 2004-02-12
Long/short Capitol Gains Clarification. 1 1066 0 2004-02-12
Capital Gains Question 2 959 0 2004-02-12
S Corp Loss Passthrough 2 1144 0 2004-02-12
TurboTax For Mac Question 6 1007 0 2004-02-12
Form 1065 Not Necessary? 4 807 0 2004-02-11
Don't Know Nothing 'bout No Taxes 0 824 0 2004-02-11
Condo Conversion Tax Implications 0 1249 0 2004-02-11
Home Office Deduction 0 886 0 2004-02-10
Can I Deduct Interest Paid If..............> 2 1231 0 2004-02-10
Interest Deduction For Rental Property? 1 1012 0 2004-02-10
Homeowner's Tax Deductible? 3 1277 0 2004-02-10
Long V. Short Term Cap Gains In Calif. 6 912 0 2004-02-10
Low Income Housing Tax Credit!! 2 1119 0 2004-02-10
Self-Directed IRA's 15 2850 0 2004-02-10
Help To Avoid Capital Gains? 1 1167 0 2004-02-10
Are Property Search Expenses Deductible 16 2125 0 2004-02-09
Owner Financing & Taxes 5 1059 0 2004-02-08
Simple IRA/SEP Question 1 976 0 2004-02-07
Sub2 Interest IS Deductible 7 921 0 2004-02-06
Tax Right Off On Failed Investment 1 1403 0 2004-02-06
Capital Expenses 1 1110 0 2004-02-05
Tax Question 5 1208 0 2004-02-03
Trade To Avoid Capitol Gains? 3 1116 0 2004-02-03
Schedule C Vs Schedule E For Vacation Rental Property 1 1216 0 2004-02-03
Does Voter Regis Determine Primary Residence? 2 895 0 2004-02-03
Tax WRITEOFF On Rental Home 2 1142 0 2004-02-03
New Corp - Tax Year 0 913 0 2004-02-02
Taxes On Referral Fees 2 1070 0 2004-02-02
Attracting Investors 2 3448 0 2004-02-29
SECOND Mortgage 1 1125 0 2004-02-29
Heloc 2 1288 0 2004-02-28
BUying The Note In Preforelosure?? 2 1046 0 2004-02-27
100% LTV Financing 9 1567 0 2004-02-27
Anyone Use Any Web Sources For 100% Mortgages? 5 1296 0 2004-02-26
Are Wraps Risky? 2 973 0 2004-02-25
Canadian Looking To Help American Buyers 8 1100 0 2004-02-25
Owner Note For DP/40K, I HELOC & Pay In 1 Week? 1 942 0 2004-02-25
Heloc For Profit 10 1328 0 2004-02-25
What Does D/E Mean? 3 1093 0 2004-02-24
Moving 1 984 0 2004-02-24
World Lending Group? 13 2248 0 2004-02-22
Going Rate For Pre-approval? 22 2299 0 2004-02-22
I Think This Is Mortgage Fraud 5 1117 0 2004-02-22
Licensing 2 925 0 2004-02-21
NOtes, John Behle 4 1126 0 2004-02-20
36k Non-performing Note For 6k 6 959 0 2004-02-20
Where Can I Market? 2 965 0 2004-02-20
Creating A Note 2 973 0 2004-02-20
Creative Financing 1 936 0 2004-02-20
AM I CRAZY ?????to Take Back A Second Mort.. 28 2151 0 2004-02-20
Newbie Question....sorry 1 809 0 2004-02-20
Hard Money Lenders? 4 1198 0 2004-02-20
Option ARM? Other Solutions? 2 947 0 2004-02-19
Groups Area? 0 764 0 2004-02-18
Flip Financing-title Seasoning Problems From Buyer 's Lender 7 1699 0 2004-02-17
Investors Tool 1 1360 0 2004-02-16
Owner Carry-back: AITD Or "Subject To" 4 1306 0 2004-02-13
Buying Mortgage Notes Directly From Banks On Properties They Are Foreclosing On 1 1340 0 2004-02-13
Hard Money Lenders 1 948 0 2004-02-12
Help With Creative Financing In Sacramento. 7 1134 0 2004-02-12
How Do You Wirte A Forgiveable Owner Carry Back Note? 6 1616 0 2004-02-12
Investing In A "notes Fund" 0 842 0 2004-02-11
New To The Forum.. 1 975 0 2004-02-11
Hard Money...split Profit 1 944 0 2004-02-11
Creative Financing 1 936 0 2004-02-11
How Much Is PMI? 5 1348 0 2004-02-10
How Will We Get The Financing We Need?? 3 1274 0 2004-02-10
Negative Amortization: A Real Threat? 2 880 0 2004-02-10
Real Estate Investor Needed 6 1198 0 2004-02-10
Looking For 125% HELOC On Owner-Occupied 2 889 0 2004-02-10
Very Creative Seller Financing!! 4 1097 0 2004-02-09
I Found A Note -- I Need Help Pricing 7 1155 0 2004-02-09
Obtaining A Line Of Credit? 7 1120 0 2004-02-06
Purchase With Cash Then Refinance? 6 1432 0 2004-02-06
Queston On Lender Rates 1 872 0 2004-02-06
using zero cupon bonds? 4 1819 0 2004-02-06
Remote Originators? 7 1014 0 2004-02-06
In A Quandry - Double Lot SFR On One 1 769 0 2004-02-06
LLC Bank Account 3 989 0 2004-02-06
How Do You Buy A Mortgage Note 1 1054 0 2004-02-06
1031 Exchange Question 1 817 0 2004-02-06
I've Found An Investment...now What 3 991 0 2004-02-06
Refi Cashout To 90% In A NOO-Stated 5 1164 0 2004-02-05
Help, Need HML For Pre-Foreclosure, Detroit 1 823 0 2004-02-05
I Am 1st 2nd Mortgage Holder...how To Foreclose 3 1059 0 2004-02-05
Ads For Private Investors 4 993 0 2004-02-05
Mortgage Statement 2 956 0 2004-02-05
Good Books Or Listing 7 1017 0 2004-02-05
Note Selling Process 3 1057 0 2004-02-04
Still Lost, A Little 1 1187 0 2004-02-04
Need Some Creative Financing Ideas! 5 1087 0 2004-02-04
Maximum # Of Mortgages? 2 1947 0 2004-02-04
Pay Cash, Refurbish Then Get A Mortg How Easy Or Difficult 7 1356 0 2004-02-03
How Do You Sell And Create A Note? 3 1023 0 2004-02-01
Need Advice On Moving Mobile Homes 0 1118 0 2004-02-29
Finding The Value Of A DW 2 1167 0 2004-02-27
Mobile Homes 4 1171 0 2004-02-26
Wholesaling MH 0 738 0 2004-02-24
Mobile Homes And Tax Sales 2 992 0 2004-02-23
Need To Get Rid Of One MH And Move Another 1 1064 0 2004-02-23
Dilemma: MHP's Or APT's ? 1 942 0 2004-02-23
Moving 0 764 0 2004-02-23
Texas RBI License Help! 2 999 0 2004-02-23
MH Financing 2 1134 0 2004-02-20
Need Out In Michigan 2 905 0 2004-02-19
Can You Lease A MH In Jacksonville, FL? 0 820 0 2004-02-19
Challenges To Overcome? 0 361 0 2004-02-19
1st Bid On MH 2 1129 0 2004-02-19
Where Can I Find Prices On Used MH's? 2 931 0 2004-02-17
Car Dealer Licence In Fl.? 1 984 0 2004-02-17
What To Offer 8 1170 0 2004-02-16
I Am Gonna Go Forward With This 37 Unit Park 7 1043 0 2004-02-16
Question About Buying 5 Unit Park, (my First Deal) 20 3107 0 2004-02-15
Buying In Other States? 1 912 0 2004-02-14
Free Mobile Homes 1 1322 0 2004-02-14
REPOS 5 1469 0 2004-02-13
Repo List 4 1428 0 2004-02-13
New Jersey Mobile Homes 1 896 0 2004-02-13
HOW DO U BUY THRU PROBATE/DEAD PEOPLE/TRUSTEES??? 3 1079 0 2004-02-13
What Is The Best Contract To Use ForMH Owner Financed 1 905 0 2004-02-13
Good Or Bad Deal? 3 1283 0 2004-02-11
Need Insurance For 5 Unit Mobile Home Park In NY 6 1043 0 2004-02-10
Newbee Information 0 818 0 2004-02-09
San Diego Mobile Home For $ 17,000 - Good Deal?? 8 901 0 2004-02-06
MH Mortgage 4 1454 0 2004-02-05
NY Repos 0 933 0 2004-02-01
Cracked Slabs - Bad As They Sound? 17 2032 0 2004-02-29
Remodeling Kitchen / Bathroom / Flooring 6 1277 0 2004-02-29
Chart Of Accounts For Quickbooks 24 3470 0 2004-02-27
Rehab Contract With Contractor 7 1051 0 2004-02-27
Potential Deal...need Advice! 6 956 0 2004-02-27
Rehabbing 2 1036 0 2004-02-27
Is This Law? Need Licensed Builder For Repairs > $500 13 1115 0 2004-02-26
First Rehab! Need To Find Money 2 1050 0 2004-02-26
Flip Or Refinance? 4 970 0 2004-02-26
Rehab-HML's 10 1299 0 2004-02-26
Rehab To Rent, Early Stages. Please Advise (Beth., MD) 3 937 0 2004-02-26
Private Money Lenders 1 1089 0 2004-02-26
What's The First Step? 2 849 0 2004-02-26
IRA And RE 0 747 0 2004-02-26
Has Anyone Bought A Lead From Ugly Houses 5 1082 0 2004-02-25
Having Rental Properties Fund Properties You Are Flipping 5 1475 0 2004-02-25
Rehabbing A House That Is In Terrible Condition 8 958 0 2004-02-25
TOXIC MOLD- SHOULD I BE SCARED? 8 1214 0 2004-02-25
Please Help Me...cosmetic Fixer Upper With Equity Question 14 1265 0 2004-02-24
ARV For 12 Unit Apartment Building 4 1014 0 2004-02-24
Rehabs....in A Bad Area 8 1164 0 2004-02-23
Foundation Problems 2 973 0 2004-02-23
Power Roller Or Power Roller With Trim Pad For Exterior Painting? 10 1102 0 2004-02-22
Need Help With Contractor Contracts 7 967 0 2004-02-21
Rehab Costs Per Sq Ft? 5 1172 0 2004-02-21
Capitol Gains Short/long 7 915 0 2004-02-21
Getting Cash Back @ Closing 1 854 0 2004-02-21
How Should I Find An Investing Partner? 4 1055 0 2004-02-20
Sources For Rehabs 0 924 0 2004-02-20
Do REO's Always Come With Clear Titles? 1 1216 0 2004-02-20
Wooden Baseboard In Bathroom 5 839 0 2004-02-20
Newbie Looking To Rehab 1 780 0 2004-02-20
Truth About New Flipping Law 7 1163 0 2004-02-20
Trying To Remove Clued Down Vinyl Off Porch 3 932 0 2004-02-20
Experienced Contractor/ Newbie Investor 6 616 0 2004-02-20
Septic System Costs 13 1439 0 2004-02-20
Rehab Money - Investor Back Out 1 941 0 2004-02-19
Agent Fee For Finding Rehabber? 4 908 0 2004-02-18
What Is My Liability With Mold? 3 1076 0 2004-02-18
Rehab Letter/great Ideas? 0 804 0 2004-02-18
Rehab Ques, Need Advice! 0 881 0 2004-02-18
Landscaping 0 1004 0 2004-02-18
Rehab Costs? 14 1456 0 2004-02-18
What Makes Sense??? 1 947 0 2004-02-18
Paneling Or Sheetrock 20 2166 0 2004-02-17
Bad Design? 7 1009 0 2004-02-17
Buy Low, Rehab, Cash-Out, L/O, Do It Again 19 2660 0 2004-02-17
There's Nothing That Feels Better Than This! 1 790 0 2004-02-17
Closing On First Rehab Thursday 0 857 0 2004-02-16
Use Of Forums 0 720 0 2004-02-16
Bank Owned House W/ Mold - Should I Go Ahead 11 1567 0 2004-02-16
Anyone Know A Good Contractor In Chicago? 4 911 0 2004-02-15
Should I Change A 2br To A 3 Br To Help Sell? 5 922 0 2004-02-15
Need Help Drafting A Letter For Property Owners 5 1057 0 2004-02-15
Property Closing Checklist 1 897 0 2004-02-15
Made Offer Now What? 5 1067 0 2004-02-15
A Little Help Please 4 1084 0 2004-02-15
Fixup Or Sell As Is - Opinions Please 10 1023 0 2004-02-15
Vinyl Siding Repair 6 1308 0 2004-02-15
Total Rehab Contractor Needed In Chicago 2 963 0 2004-02-14
Looking For Course 4 904 0 2004-02-14
LLC , Limited Partnership?? 3 888 0 2004-02-14
Termites... 4 1126 0 2004-02-14
Looking for rehabs in Cleveland Ohio 8 2244 0 2004-02-14
Is Buying A Row Of Burnt Out Townhouses SMART? 5 1062 0 2004-02-14
Best Market For Rehabs? 10 1393 0 2004-02-13
Tons Of Ugly Properties 20 2615 0 2004-02-13
Experience With Homevestors Rehabbers? 3 1232 0 2004-02-12
Un-seasoned Mortgage? 11 1120 0 2004-02-12
Hard Money Lenders 5 1194 0 2004-02-11
Course 0 820 0 2004-02-11
This Could Be My 1st Deal...Need Help 4 1046 0 2004-02-10
Wanted To Buy 0 811 0 2004-02-10
Need Rehabber/Manager In Buffalo NY 8 1549 0 2004-02-09
My First Offer-- Need Help With Estimates... 12 1201 0 2004-02-09
LEAD PAINT ON WINDOW TRIM 35 2811 0 2004-02-09
Refi. 2 1076 0 2004-02-09
Robyn Thompson's Rehab Videos 3 949 0 2004-02-08
Figuring Numbers For Rehabing 4 1171 0 2004-02-08
Mentor Wanted 2 893 0 2004-02-08
Capping Off A Water Line 10 1229 0 2004-02-07
Is Seller Non-disclosure Okay? 1 844 0 2004-02-07
Help... Power Hasn't Been On In 3 Years.... 15 2035 0 2004-02-07
HELOC 0 827 0 2004-02-06
Cash-out Refi's 3 924 0 2004-02-06
I Fired My Sub-contractor!! 25 2307 0 2004-02-06
Question On Removing A Pool 4 973 0 2004-02-05
Looking For My First Purchase... 7 1100 0 2004-02-04
4 Unit 0 719 0 2004-02-04
Re 4 Plex Unit Property 0 655 0 2004-02-04
Financing Options 1 1047 0 2004-02-03
Running Out Of Ideas 21 2145 0 2004-02-03
I Need Some Info Please!!!! 2 803 0 2004-02-02
Financing A Rehab Property 5 1049 0 2004-02-02
CLEAN UP AFTER CARPET REMOVAL 1 1081 0 2004-02-02
Holding Costs... 0 698 0 2004-02-02
Partnership Gone Awry! 2 877 0 2004-02-02
Painting Stained Trim 9 1481 0 2004-02-02
Best Way To Find Wholesalers 2 1054 0 2004-02-29
Wholesaling A Foreclosed House, In CT 5 1072 0 2004-02-29
Lenders 0 711 0 2004-02-29
Lending 0 803 0 2004-02-29
Owner Financing 5 996 0 2004-02-29
In The Middle Of First Deal And I Need Help 6 1292 0 2004-02-29
Built In Financing 1 839 0 2004-02-29
Title Company In Atlanta GA 3 943 0 2004-02-28
Wholesale Sale Contracts 0 975 0 2004-02-27
Wholesaling Lots 3 3546 0 2004-02-27
Newbie Questions 0 857 0 2004-02-27
Equity 5 1035 0 2004-02-26
Question For Florida Flippers. 7 1119 0 2004-02-26
Best Option For Property Use ? 3 975 0 2004-02-26
What Would You Offer??? 2 760 0 2004-02-26
Letter Of ReDirection 1 900 0 2004-02-26
Illinois Investors 1 832 0 2004-02-26
How To Make A Clean Offer?? 4 1642 0 2004-02-25
Birddogging For Beginners 2 1145 0 2004-02-25
Selling A Rehab 2 1024 0 2004-02-25
Flip Or Hold? 1 908 0 2004-02-25
How Do I Pull This Off?? 3 772 0 2004-02-25
Determining Wholesale Offer? 1 851 0 2004-02-24
Wholsaling Newbie 5 1167 0 2004-02-24
HUD Property 9 1267 0 2004-02-24
Have Buyer/Need House (Woodland Hills, CA ) 1 1033 0 2004-02-24
Steve Cook - Wholesaling For Quick Cash-worth It? 3 1141 0 2004-02-24
COURTHOUSE AUCTION 0 685 0 2004-02-24
Finding Properties With Tax Liens 4 1147 0 2004-02-24
How Do I Find Properties ?? 5 1185 0 2004-02-24
This Has Been Asked, But I'm Looking For Specifics... 4 935 0 2004-02-24
Hard Money 4 934 0 2004-02-24
HML Verses LTV? 6 784 0 2004-02-24
What Would You Offer 23 2182 0 2004-02-23
Reviews On Subject 2 Courses 4 877 0 2004-02-23
Rehab Advice 7 819 0 2004-02-23
Moving 0 819 0 2004-02-23
Long Island Investors 8 1124 0 2004-02-23
Can You Still Work A S.Calif Market And Be Profitable? 18 2166 0 2004-02-23
Vacant Property Insurance? 3 827 0 2004-02-22
Estate Sales 3 790 0 2004-02-22
Balloon Payments 0 757 0 2004-02-22
Types Of Rehab Properties To Buy 5 921 0 2004-02-21
Getting Rehab Deals Before They Hit The MLS 3 997 0 2004-02-21
After Making A Offer Do Callers Say They'll Speak With Spouse & Dissapear? 3 1058 0 2004-02-21
Judgement? 9 838 0 2004-02-20
Seller Trying To Back Out, Now What? 29 2398 0 2004-02-20
Approaching An Abandoned Property Owner 11 1279 0 2004-02-20
Getting Forclosed Owners Out 5 1051 0 2004-02-20
Looking For Investment Group 1 914 0 2004-02-20
Anyone From Portland Oregon? I Need Advice. 5 1030 0 2004-02-20
Wholesaling In Oregon 4 907 0 2004-02-20
Built Buyers List Now What ? 0 756 0 2004-02-20
State To State 2 840 0 2004-02-20
Wholesaling 12 1104 0 2004-02-20
Finding Absentee Owners 12 1236 0 2004-02-20
Wholesaling As A Real Estate Agent 4 899 0 2004-02-19
Following Up With Lis Pendens 0 741 0 2004-02-19
Anyone Know About Flipping Or Renting Properties In Allentown, PA? 2 865 0 2004-02-19
Escrow And Assignment ? 0 739 0 2004-02-19
Sales Contracts, Deeds??? 2 985 0 2004-02-19
RESPA/HUD Anti- Flipping Law Hurting Investors 16 2254 0 2004-02-18
Any Good Cities In NY/NJ/CT/PA To Flip Properties? 6 1190 0 2004-02-17
Looking to birddog for investors in OC, CA..... 2 1053 0 2004-02-17
Finder's Fee In CT 0 769 0 2004-02-17
Land Development, Help.... 2 924 0 2004-02-17
Contacting Property Owners And Make An Offer 6 1264 0 2004-02-17
Revitalization Question 2 828 0 2004-02-17
My Attorney Or Their Attorney 3 1061 0 2004-02-17
What I Need To Know. 0 755 0 2004-02-16
Investors Dream 25 2818 0 2004-02-16
New Law Fannie Mae 11 1473 0 2004-02-16
Creating/Establishing A Buyers List 3 945 0 2004-02-16
Fannie Mae Following FHA On Flipping? 0 718 0 2004-02-16
Seller Carryback As Remedy Lender's Title Seasoning Issues??? 1 820 0 2004-02-16
Tax Question Part 2 0 694 0 2004-02-15
Tax Question 1 700 0 2004-02-15
Advise On Wholesaling A Commercial Property 1 817 0 2004-02-15
203k Rehab? 3 922 0 2004-02-14
Quick Help On Bulk Buy 4 946 0 2004-02-13
House Mold 2 869 0 2004-02-13
Newbie Flipping Question 1 825 0 2004-02-13
Land Area Formula Question 3 939 0 2004-02-12
?'s To Ask Other Investors Or "We Buy Houses"people 7 3295 0 2004-02-12
To Pay-off Or Not To Pay-off 18 2271 0 2004-02-12
Prefabricated Homes????????? 10 939 0 2004-02-12
-- Website Critique Needed.. 3 877 0 2004-02-12
Do These Numbers Work? 5 942 0 2004-02-12
HELP!! Approaching The Homeowner 1 893 0 2004-02-12
Negotiating Purchase Price 3 497 0 2004-02-12
Seller Nondisclosure 5 868 0 2004-02-11
Looking For Properties Of Interest - Luxury Homes 3 863 0 2004-02-11
How To Find Owner Of Property? 9 1636 0 2004-02-11
Where Do I Post A Home That Is In Foreclosure 0 891 0 2004-02-11
Are These Numbers Real!!!! 4 976 0 2004-02-11
Contract On Property? 4 1109 0 2004-02-11
REI Made Easy!!! 1 971 0 2004-02-11
The Epitome Of Wholesaling 1 895 0 2004-02-11
Showing House While It's Under Contract ? 9 1063 0 2004-02-11
Very Little Money To Start With 23 3175 0 2004-02-10
Assignment Fee 2 1065 0 2004-02-10
Help Possible HOA Problem 1 885 0 2004-02-10
Possible Deal Need Advice 2 859 0 2004-02-09
Thank You / Inspiration For Others 4 838 0 2004-02-09
Special Adendum And Seller Nondisclosure 4 1045 0 2004-02-09
How do I find Newbie Real Estate Agents 15 2621 0 2004-02-09
Purchasing Long Distance 1 786 0 2004-02-09
Question About Filling Out Contract? 2 923 0 2004-02-09
Scott Risters Wholsaling Course 3 1253 0 2004-02-09
Contract Is Signed; Need Some Advice 2 840 0 2004-02-08
Dont Get Frustrated! 3 965 0 2004-02-08
Multi Million $ Homes 2 904 0 2004-02-08
Screening Investors/rehabbers 20 2699 0 2004-02-07
What Type Of Entity Is The Best Way... 5 987 0 2004-02-07
NEWBIE Needs Help..... 1 859 0 2004-02-07
Serious Buying Question Here 9 919 0 2004-02-07
Research 1 806 0 2004-02-07
I Found A Potentially Good Deal, But.... 8 1438 0 2004-02-06
Need Investor Help 5 818 0 2004-02-06
We Must Be Living Right! 2 825 0 2004-02-06
Is Wholesaling Really This Easy?? 18 3005 0 2004-02-06
Property Research 1 928 0 2004-02-06
Home Values Please? 7 1260 0 2004-02-06
Land 5 743 0 2004-02-06
Robert Allen Institute 17 3915 0 2004-02-06
What Is Wholesaling? Please Help! 0 844 0 2004-02-05
Help !!!!! 8 966 0 2004-02-05
Business Cards 23 2475 0 2004-02-05
Distribution Of Profits. 1 922 0 2004-02-04
We Are Acquiring A REO Next Week, What Is The Best Way To Unload It Quickly... 13 1278 0 2004-02-04
What Comes First :Finding A Buyer Or Inking The Deal?? 6 912 0 2004-02-04
Any Investors In WNY??? 1 808 0 2004-02-04
Online Lenders/Out Of State Lenders 1 828 0 2004-02-04
Need Advice From The Best! 6 978 0 2004-02-04
National Advertising For FL Properties 6 795 0 2004-02-04
Skip Tracers 2 1088 0 2004-02-04
Any Rehabbers In Western NY??? 0 818 0 2004-02-04
Closing Attorney In Atlanta, GA-Please Help 4 1140 0 2004-02-04
No Motivated Sellers 12 1369 0 2004-02-04
Flip Or Hold 14 1198 0 2004-02-04
Option Contracts 5 1520 0 2004-02-03
Unique Market Question 0 807 0 2004-02-03
Question Regarding Owner Financing 0 773 0 2004-02-03
Simultaneous Closings 2 983 0 2004-02-03
Buying First Home 1 846 0 2004-02-03
How Many Homes Do You Wholesale A Month? 2 941 0 2004-02-03
Essential Reading Help Please 3 1086 0 2004-02-02
Who Is Responsible For "WHAT" 3 828 0 2004-02-02
First Lead!!! Should I Do It ?????!?!? 4 1120 0 2004-02-02
Help Required From Middle Earth!!!! 5 994 0 2004-02-01
Question 4 1012 0 2004-02-01
Driving For Dollar Successes 9 1053 0 2004-02-01
Lein - Abstract Of Judgement 1 895 0 2004-02-29
Advice Needed In Following Short Sale Situations 1 1150 0 2004-02-29
New To Pre-foreclosures 0 763 0 2004-02-29
How Long Is The Foreclosure Process? 4 1296 0 2004-02-29
HUD Foreclosure 6 1295 0 2004-02-29
BUYING PROPERTIES AT 40% FMV OR LESS 144 12166 0 2004-02-29
What Is Right Of Redemption? 9 1073 0 2004-02-28
If You Know How This Feels-Please Respond-Need Tips! 13 1566 0 2004-02-28
Any Luck With Door Knocking? 0 781 0 2004-02-28
Help Fast, Aution On 3/9/04 4 890 0 2004-02-28
Lead Provider In Missouri?? 2 1039 0 2004-02-27
PRE FORCLOSURE 1 980 0 2004-02-27
Both Tax And Mortgage Foreclosure 2 867 0 2004-02-27
Urgent - Seller Is Moving On Monday - Need To Try To Put Together A Short Sale 1 937 0 2004-02-27
Using A Biz Plan? 2 1220 0 2004-02-27
Would You Do This Deal? 12 1097 0 2004-02-26
Where Are You? 2 774 0 2004-02-26
Eviction With No Damage 2 837 0 2004-02-26
How Do I Get In The House I Just Bought? 9 1266 0 2004-02-26
Liens On Foreclosure Properties 5 969 0 2004-02-26
Pre Forclosure Help 0 955 0 2004-02-26
Nick 1 764 0 2004-02-26
Beginner 0 896 0 2004-02-26
FORCLOSURE 5 1177 0 2004-02-25
Finding Foreclosures...help Me Please! 7 1136 0 2004-02-25
FSBO 3 965 0 2004-02-25
Help In Goshen, IN. 0 821 0 2004-02-25
I Need Help Writing A Letter To Households Who I Am Proposing To Buy There House From. 7 1469 0 2004-02-25
For The Gurus! A Question 11 1142 0 2004-02-25
Qualified Intermediary 0 871 0 2004-02-25
Bank Knows Its Underwater But Reluctant To Postpone 3 1348 0 2004-02-25
Finding Old MLS Listings 0 917 0 2004-02-25
What To Do With Tenants After Auction? 13 1512 0 2004-02-25
Hard Money 6 1469 0 2004-02-25
Anyone Else Trying To Get Spouse Interested? 3 969 0 2004-02-25
Friends Property To Foreclose On March 2nd Need Help 1 1032 0 2004-02-25
Electrical And Plumbing Wiring 3 915 0 2004-02-25
Went To Auction, Funds Never Came, Bank Owned, Back At Auction 0 973 0 2004-02-24
Bank Owned Property 4 1100 0 2004-02-24
Lenders 0 786 0 2004-02-24
Hard Money Lender 0 779 0 2004-02-24
Wanted! A Good Per-foreclosure Letter To Mail 2 1123 0 2004-02-24
Ohio Sheriff Sale 1 970 0 2004-02-24
Wow, TCI Now Charges To Get Free Help? 34 3676 0 2004-02-24
$50 For How Long? Or Not $50? 0 700 0 2004-02-24
Right Of Redemption 1 872 0 2004-02-24
Tax Forfeiture/Foreclosures 1 986 0 2004-02-24
What Liens Survive? 3 1142 0 2004-02-24
Looking For Partner On Deal In W. NC 1 985 0 2004-02-24
NOD To Forclosure 3 1034 0 2004-02-24
Made Offer On REO - Should I Wait Or Move On? 9 1008 0 2004-02-23
Got Myself In A Jam, Needs Help Quick- Forclosure 0 915 0 2004-02-23
State Tax Lien 2 801 0 2004-02-23
Texas Houses For Pennies Program 0 1018 0 2004-02-23
Moving 0 783 0 2004-02-23
Scenerio 1 770 0 2004-02-23
Feedback On Deal... 3 815 0 2004-02-23
Need A Great RE Lawyer In Los Angeles,CA 5 1005 0 2004-02-23
New To The Foreclosure Market In New Jersey 1 982 0 2004-02-22
Buy Or Rent 7 1114 0 2004-02-22
Getting Redemption Rights. 2 840 0 2004-02-22
Holly Hannah, Help! 5 1058 0 2004-02-21
Assigning Pre Foreclosures 1 918 0 2004-02-21
Want To Buy Foreclosed Property For Primary Residence 2 965 0 2004-02-21
What Is The Acronym HECL? 2 986 0 2004-02-21
Tired Of Reading/ready For Action 4 991 0 2004-02-21
Closing Deals And Pulling Cash At Close 1 879 0 2004-02-21
2nd Lienholders Can Foreclose? 9 1034 0 2004-02-21
Do I Sell My House To Buy Another Or Have Both? 1 850 0 2004-02-21
Have Buyer, Need Property (Woodland Hills, CA) 0 969 0 2004-02-21
Startup Expenses And Tax Writeoffs? 11 1341 0 2004-02-21
Los Angeles County Preforeclosure Listing Resorce Question 1 944 0 2004-02-21
Has Anyone Purchased The Foreclosure Hunters Course ?? - Need Opinions 0 1073 0 2004-02-21
Foreclosures In Springfield, MA 0 859 0 2004-02-21
Best Ways To Find Foreclosed Homes? 6 1280 0 2004-02-21
Ready to close . . . BUT 2 893 0 2004-02-20
Trying To Find Pre Foreclosures 3 918 0 2004-02-20
Help! Cash For Keys Form Letter Please!!! 6 1120 0 2004-02-20
Voluntary Vacancy Agreement 0 1028 0 2004-02-20
How Do You Buy A Home When Seller Just Filed Bankrupty? 4 999 0 2004-02-20
Need Help Finiding Lender Info 1 918 0 2004-02-20
Foreclosure On 2nd 3 969 0 2004-02-20
Foreclosure... Short Time Frame 0 841 0 2004-02-20
Foreclosing From The Back Seat 3 993 0 2004-02-20
Finding Partners 10 1273 0 2004-02-20
I Have Never Done This... Preforeclosure 4 948 0 2004-02-20
VA REO 2 887 0 2004-02-20
Short Sale Or Pre-foreclosure 1 950 0 2004-02-20
Need Help In Georgia 0 870 0 2004-02-20
Hidden Auction Items 3 1120 0 2004-02-20
OFFERS ON FANNIE MAES 3 766 0 2004-02-20
Limit To Number Of Foreclosures Purchased Per Year? 0 868 0 2004-02-19
Purchasing REO Properties 13 1407 0 2004-02-19
Need Help With A Deal 4 1070 0 2004-02-19
Sheriff Sale 3 1045 0 2004-02-19
Seller Pays For Advertising. 4 1149 0 2004-02-19
Philly Sheriff Sale On 8/5 1 1659 0 2004-02-19
Pre Foreclosure Deal 11 1014 0 2004-02-19
Preforeclosure Equity Rule Of Thumb 6 1045 0 2004-02-19
Auction Sale 3 939 0 2004-02-19
Sec 1695.13 California Law 3 784 0 2004-02-19
Fair Fees For Birddog RE Agents? 5 895 0 2004-02-18
Bidding On Texas HUD Properties 2 1741 0 2004-02-18
Buying REO's 2 1027 0 2004-02-18
Redemption Rights In GA? 4 847 0 2004-02-18
After Forclosure? 0 828 0 2004-02-18
Experts- Anyone Pay FMV For Pre- Foreclosure? 1 801 0 2004-02-18
What Would I Take To Get Your Attention? 15 1991 0 2004-02-17
Locating The Lender 7 1158 0 2004-02-17
Consulting Fee 3 959 0 2004-02-17
Light Manufacturing Facility: Boon Or Bane For Rentals? 0 686 0 2004-02-17
How Do I Get Inside? 10 1014 0 2004-02-17
US Customs Auction - Contract Assignable? 7 788 0 2004-02-17
Equity Split 5 1035 0 2004-02-17
Realistic To Make Instant Equity??? 0 791 0 2004-02-17
What Is "Cooperative Assignment"? (COA) 0 760 0 2004-02-17
Assign Reo Contract 6 974 0 2004-02-17
Finding FMV Online 5 1061 0 2004-02-17
Foreclosure Websites 1 764 0 2004-02-17
Foreclosure Judgement Amounts 10 1426 0 2004-02-17
Sheriff Sale 1st Timer, Help!!! 5 958 0 2004-02-17
California Law Sec. 1695.17 0 756 0 2004-02-17
Double Checking On NOD Questions 3 1017 0 2004-02-17
Power Of Attorney 2 944 0 2004-02-16
Cost Of Title Insurance Policy In Your State 0 1044 0 2004-02-16
Trustee Sale And Forbearance Agreement 3 864 0 2004-02-16
Preforclosure Question?? 11 1207 0 2004-02-16
Auction Just Around The Corner 3 745 0 2004-02-16
Do You Like This Pre-foreclosure Letter? 24 4232 0 2004-02-16
Notice Of Default 0 819 0 2004-02-16
Newbie Question On Making An Offer On House That Will Be Foreclosed On. 4 1261 0 2004-02-15
HUD Auction 0 735 0 2004-02-15
Bank That List Their REO's 5 1516 0 2004-02-15
Purchase Agreement Forms 2 1045 0 2004-02-14
Website 0 731 0 2004-02-14
I Have The Capital To Invest............. 1 748 0 2004-02-14
Virginia Trustee Auction Sale 1 747 0 2004-02-14
Lady Needs Help 5 816 0 2004-02-14
Help This Lady And/or Make Money 7 877 0 2004-02-14
Is There Foreclosure Info For Californians 2 888 0 2004-02-14
Buying At The Auction? 2 1085 0 2004-02-14
Can You Creatively Buy Pre-fo, Forclosures?? 2 1003 0 2004-02-14
Va At Foreclosure Auction 3 976 0 2004-02-14
Buying From A Substitute Trustee 0 915 0 2004-02-14
Foreclosure Site Florida 8 1198 0 2004-02-14
Keeping The Foreclosures For Rentals 8 927 0 2004-02-14
Mortgages On Properties With Sheriff Deed? 2 948 0 2004-02-13
Basic Info For Newbie 0 786 0 2004-02-13
Making My First Offer 5 998 0 2004-02-13
Emergency-Preforeclosure Divorced Couple 4 785 0 2004-02-13
How Do You Perform A Title Search Yourself?!?!? 12 1287 0 2004-02-13
Whole Saleing Pre-Forecloseures 8 1199 0 2004-02-13
Your Opinions Plz On My Letter 14 1346 0 2004-02-13
Buy It Before The Auction? 5 902 0 2004-02-13
How Much Will The Bank Let Go In Short Sale 8 1038 0 2004-02-13
Help! VA, FHA Etc. 8 1049 0 2004-02-13
Legal Forms 1 846 0 2004-02-13
Foreclusre $$$ Gain 3 948 0 2004-02-13
FAIR MARKET VALUE OF FORECLOSURE 2 934 0 2004-02-13
Foreclosure Lenders??? 1 784 0 2004-02-13
Selling On Optoin 5 976 0 2004-02-13
Who Owns This House? 8 1125 0 2004-02-13
Do Homeowners In Foreclosure Lie? 14 1386 0 2004-02-13
Looking For A "For Fee" Lis Pendence List Service 3 884 0 2004-02-13
Can The Second Do This? 4 796 0 2004-02-12
Help!! First Trustee Sale Is Tommorow 4 882 0 2004-02-12
Cash At Foreclosure Auctions, Flip, And Title Seasoning 15 2379 0 2004-02-12
Title Companies 0 798 0 2004-02-12
Sherriff Sale???? 4 1313 0 2004-02-12
Vacant Home...Who Owns It? 3 812 0 2004-02-12
Locating Owner's Name 13 1499 0 2004-02-12
Looking For Preforclosure Listing Service 0 732 0 2004-02-12
Foreclosure Auction Liens 5 1018 0 2004-02-12
Private Sale,Sealed Bids? 1 698 0 2004-02-12
Auctions Cancelled 2 724 0 2004-02-12
MLS Listing 2 1019 0 2004-02-12
Short sale with Homecoming Financial 5 4152 0 2004-02-12
Work Begins This Weekend! 11 1365 0 2004-02-12
Hud 9 1055 0 2004-02-12
Blackmailed Anyone?! 15 2159 0 2004-02-12
Newbie Needs Help Foreclosure Contracts 5 992 0 2004-02-12
How About Flipping The Hotel Where The TCI Convention Will Be Held 1 1253 0 2004-02-12
Finding REO Listings? 5 1061 0 2004-02-11
Do Agents Have An Advantage? 2 796 0 2004-02-11
Motivated Landlords/Sellers?? 1 777 0 2004-02-11
Texas Law 5 1010 0 2004-02-11
OFFERS ON REOS 17 2208 0 2004-02-11
Cahout Taxed As Income? 1 841 0 2004-02-11
Section 8 Homebuyers And Ads In The Paper 1 845 0 2004-02-11
After Courthouse Auction And No Sale?? 4 870 0 2004-02-11
Pre-Foreclosure Contract 4 1109 0 2004-02-11
Preforeclosure Assistance Needed 6 1207 0 2004-02-10
Thanks Everyone 0 767 0 2004-02-10
Foreclosing 2nd Mortgage...Can I????? 2 861 0 2004-02-10
One Week Utill Foreclosure Auction Question 5 1051 0 2004-02-10
Nashville Market 0 737 0 2004-02-10
Foreclosure/Homeowners Equity 3 945 0 2004-02-10
Substitution Of Trustee? 8 967 0 2004-02-10
Michigan Too Many Foreclosures For Me To Handle! USA Foreclosure, Tax Properties On The Books 0 1082 0 2004-02-09
So What Can We Post? Tired Of Post's Being Deleted. 23 2625 0 2004-02-09
Rei Clubs In Ocala,Fl And Info On Pre-foreclosures 2 1027 0 2004-02-09
Florida Is In The House 0 766 0 2004-02-09
Help With Deal?? 2 805 0 2004-02-09
Information Regarding Chain Of Title/double Escrows 0 944 0 2004-02-09
How To Call Attorney Or Law Office For Update 2 979 0 2004-02-08
Can Anyone Help On This Foreclosure Topic? 11 1198 0 2004-02-08
Is This What I Am Looking For? 4 966 0 2004-02-08
New At This 0 694 0 2004-02-07
Should I State The Facts? 3 761 0 2004-02-07
Insuring A Foreclosure Property Obtained At Sale 3 1111 0 2004-02-07
2nd Mortgage Rights 4 1109 0 2004-02-07
Are The Prices In Houston Going Down Again. 0 1334 0 2004-02-07
Where Do I Post To Request Properties? 0 716 0 2004-02-06
Best Online Fee Service For Finding Forclosures? 11 1289 0 2004-02-06
Need Help- Probate Issue 1 908 0 2004-02-06
Advice Requested On Pre BK 0 716 0 2004-02-06
Preforeclosure Or Foreclosure? 3 1288 0 2004-02-06
Owner Financing Help!!!! 1 879 0 2004-02-06
Is This Worth It?! 9 998 0 2004-02-06
Negotiating A Deal W/a Homeowner On A Foreclosure 2 992 0 2004-02-06
Eviction From Foreclosed Home 7 943 0 2004-02-06
Buying During Redemption Period 3 1209 0 2004-02-06
Buying Property After Sheriff's Sale. 1 897 0 2004-02-06
I Am On Track! 1 751 0 2004-02-06
NEW TO FORECLOSURE....HELP!!! 2 861 0 2004-02-06
Financing Options For First Time Buyer 1 904 0 2004-02-06
Finding Contact Information Of People In Foreclosure 2 891 0 2004-02-06
Bargain.com....worth It Or Not??? 5 1098 0 2004-02-06
Oops, Got A Check In The Mail, Thanks John L. 0 916 0 2004-02-05
Lost One I Was So Close On! Ohhhhhhhh! 5 840 0 2004-02-05
Finding Property Records 2 971 0 2004-02-05
First Offer 1 833 0 2004-02-05
Newbie In Tampa Bay Area 0 706 0 2004-02-05
Pre-foreclosures 8 1875 0 2004-02-05
Calling Home Owners Right Before Their Foreclosure Acution 8 1134 0 2004-02-05
Purchase Process 5 1071 0 2004-02-05
Approaching The Seller, NoD Filed 10 1132 0 2004-02-05
FSBO What Offer Contract To Use? 9 1151 0 2004-02-05
Lead Paint In HUD House 5 879 0 2004-02-05
Contract??? 1 864 0 2004-02-04
Bad Countrywide Foreclosure Situation 20 2767 0 2004-02-04
Rookie Seeking Answers 1 740 0 2004-02-04
Quick Question/ Sherrif's Sales!!! 2 902 0 2004-02-04
Keeping The Government Away From My Money 2 1059 0 2004-02-04
A Way To Save A Home In Forclosure 2 839 0 2004-02-04
Found A Possible Deal 8 908 0 2004-02-04
I Want To Save My House! 25 3109 0 2004-02-04
Buy Time By Filing An "answer" To Foreclosure Complaint 1 891 0 2004-02-04
Is Title Clear/Deed In Leiu Of 3 1617 0 2004-02-04
Help With Finding Info On A House In Bankruptcy Status 1 1143 0 2004-02-04
You Be The Judge 0 920 0 2004-02-04
Relocating To Fla - Investors Assoc 2 814 0 2004-02-04
Best Buying Method In A Crunch??? 4 790 0 2004-02-04
Need Assistance On Short Sales 1 1673 0 2004-02-03
Newbie In The Dark.... 2 936 0 2004-02-03
Go Pats!!!!!!!!!!!!!!!! Massachusetts Questions 2 949 0 2004-02-03
Pre Foreclosure?? 8 1119 0 2004-02-03
Proven Short Sale System 2 1118 0 2004-02-03
Calling/Writing To Potential Buyers 4 1096 0 2004-02-03
Default Data 1 1000 0 2004-02-03
Rehab Foreclosured House 1 1004 0 2004-02-03
Another Newbie In The Dark?? 2 967 0 2004-02-03
Chapter 13 And Bank's Thoughts On Buying House 1 861 0 2004-02-03
Auction Newbie Questions.... 7 1031 0 2004-02-03
BIRD DOG FINDER FEES 9 1263 0 2004-02-03
Preforeclosure And MLS Listings, HELP!!! 1 905 0 2004-02-03
HELP!!!!!! 1 716 0 2004-02-03
Capital Gains & Fees? 1 910 0 2004-02-03
Pre-Foreclosure - Need To Understand!! NEWBIE 7 1305 0 2004-02-03
Purchasing Pre-Foreclosure Property 1 1866 0 2004-02-03
Buying On A Option 3 1088 0 2004-02-03
Fed Seizure Question 3 957 0 2004-02-02
What Documents Need To Be Filed? 2 1117 0 2004-02-02
What Can I Charge A Bank To Run These Properties? 0 676 0 2004-02-02
Title Insurance Needed 0 751 0 2004-02-02
Help! Post Tax Auction Financing. 3 966 0 2004-02-02
Canadian Investment Group - How Buy Multiple Foreclosures 0 861 0 2004-02-02
How Do I Get Started? 3 1013 0 2004-02-02
What Is Bird Dogging? 1 830 0 2004-02-02
How To Take Possession Of Property After I Win Sherrif Sale 4 1067 0 2004-02-02
Need Help!!!!! First Deal!! 6 912 0 2004-02-02
HUD Homes 6 1376 0 2004-02-02
I Need This D E E D! 6 963 0 2004-02-01
Any Forclosure Guru's Utilizing Their Skills In Massachusetts 0 889 0 2004-02-01
Found Something Need Some Help! 20 2260 0 2004-02-01
Title Searching...hands-on Or Hands-off? 4 945 0 2004-02-01
Flat Fee MLS 21 2523 0 2004-02-01
Next/Previous Post 0 787 0 2004-02-27
Using Profiles To Facilitate Parnterships 0 997 0 2004-02-26
How About A "Print This Topic" Button? 1 935 0 2004-02-25
Sorting The Forums For A Better View? 0 829 0 2004-02-25
Hooray! 0 916 0 2004-02-24
Private Message System Improvements 3 929 0 2004-02-17
TCI Friends List & "Follow This Post" Additons 3 925 0 2004-02-17
BETA Testers: Should Motivated Seller Leads Be In TCIRealty 3 892 0 2004-02-17
TCIBay 1 735 0 2004-02-17
See Orign Q's While Responding 1 817 0 2004-02-17
Searching Usernames 3 816 0 2004-02-09
Template For Reporting Expenses 4 998 0 2004-02-05
Archive Of Posts 1 1040 0 2004-02-05
Mechanics Lein 0 1015 0 2004-02-28
Subject To 0 854 0 2004-02-28
IRS To Shut Down Local Property 1 1023 0 2004-02-26
Redemption Period Ending Question 14 1297 0 2004-02-26
Tax Deed Purchases 1 1047 0 2004-02-26
Tax Leins In North Carolina 3 1157 0 2004-02-26
Questions Regarding The Seemingly Explosive Popularity 10 2195 0 2004-02-24
Ohio First Timer Ready To Bang Head Against Wall! Please Help!!!! 3 1149 0 2004-02-24
Maricopa County Arizona Tax Lien Sale Results So Far 5 1587 0 2004-02-23
Quick Question/ Tax Sales!!!! 11 1437 0 2004-02-23
Will Tax Lien Still Exist After Foreclosure? 0 1126 0 2004-02-23
Returned Tax Assessments??? 5 952 0 2004-02-23
List 0 1009 0 2004-02-23
Tax Liens, Back Taxes? 1 967 0 2004-02-22
Strange Comment From County...Tax Liens??? 3 1085 0 2004-02-21
How To Find Whether A State Has Tax Lein Or Not 1 1158 0 2004-02-20
Newbie Question 8 1464 0 2004-02-20
Using Self-directed IRA For Tax Lien Certificates 1 1215 0 2004-02-20
Where To Find Tax Lien Property 3 1443 0 2004-02-17
"Almost Free" Credit Reports 0 961 0 2004-02-17
Property Tax On Tax Deed Sales 1 1062 0 2004-02-17
PA Tax DEED Sale 0 1119 0 2004-02-16
Title Searches 1 967 0 2004-02-16
Tax Deed Sale CA 3 1176 0 2004-02-16
Oklahoma Tax Certificate REPORT 2 1068 0 2004-02-14
CA Tax Lien State? 4 1028 0 2004-02-14
Basic Info For This Newbie 3 1213 0 2004-02-14
Bidding On Repo Mobile Home With Land 1 1224 0 2004-02-13
GA Tax Sales 2 956 0 2004-02-13
Re-selling Tax Deed Properties Question 12 1452 0 2004-02-13
Found A Property 3 Years Deliquent... 3 1333 0 2004-02-13
Michigan Tax Sale Deeds: Any New Info On Getting Title Insurance? 1 983 0 2004-02-13
Arkansas Land 5 1194 0 2004-02-12
Back Taxes Duval County Flordia 4 1665 0 2004-02-12
FMV 3 974 0 2004-02-12
Upcoming Tax Sale In CA 11 1370 0 2004-02-12
Tax Deed Sale In Florida,marion County, To Good To Be True 6 1397 0 2004-02-12
Philly Tax Sale 2 1289 0 2004-02-11
Little Help!!!! 4 974 0 2004-02-11
California Default Tax Sales 7 1241 0 2004-02-11
Clue me IN! 3 1780 0 2004-02-11
Tax Lien Certs 1 1039 0 2004-02-10
Tax Liens 0 999 0 2004-02-10
PA Tax Lien Certificates ? 3 1186 0 2004-02-09
West Virgina Tax Lein Info That Is Available 0 825 0 2004-02-09
Help! I Need A MD Lawyer Familiar With Tax Leins And Foreclosure 2 992 0 2004-02-09
Title Insurance 4 1053 0 2004-02-08
TAX LIEN SALES 1 1069 0 2004-02-07
PA TAX SALES? 3 1148 0 2004-02-07
Tax Lein Certificates 2 1628 0 2004-02-07
Tax Sale Question About $$ Disbursement 9 1526 0 2004-02-06
Finding Properties With Tax Liens In Pennsylvania?? 2 1291 0 2004-02-06
Orange And Seminole County 3 1135 0 2004-02-06
NJ Tax Lien Process 1 1038 0 2004-02-06
Tax Liens...The Right Path? 5 2040 0 2004-02-06
Help With Tax Lein 10 1334 0 2004-02-05
Help...I Am Foreclosing On Mortgage 17 2906 0 2004-02-04
Tax Liens In NC 6 1988 0 2004-02-04
Courses? 4 1087 0 2004-02-04
More Info On Tax Liens 2 1121 0 2004-02-04
John, No CA, Wondering About Investing At Tax Sales. 3 983 0 2004-02-04
Tax Lein Certificates & Tax Lein Auctions 2 1205 0 2004-02-03
No Bid Counties Like OK. 2 1074 0 2004-02-03
Tax Sale Question? 1 962 0 2004-02-02
What Are Tax Liens? 4 1243 0 2004-02-02
Rent To Own 1 1154 0 2004-02-29
Ebook Won't Open!!!!!!! 0 889 0 2004-02-25
Cost Of TCI 1 1102 0 2004-02-24
Articles??...are You Serious? 6 963 0 2004-02-23
Rankings? What Does That Mean? 8 1146 0 2004-02-23
REI Web Site Admin, HOW???????? 0 779 0 2004-02-20
How About A State By State "Networking" Tab Or Forum 0 872 0 2004-02-20
Lenders/Forum Recommendations 11 1213 0 2004-02-17
Closing Question 0 951 0 2004-02-17
New Identity 0 937 0 2004-02-17
E-book Will Not Unzip 9 513 0 2004-02-15
Definition Error In TCI Encyclopedia 0 874 0 2004-02-14
How Beneficial Is Training? 5 991 0 2004-02-14
Other Ideas For Us 0 872 0 2004-02-14
Question 1 826 0 2004-02-12
What Do They Want For Fair Market Rent? 1 1098 0 2004-02-10
Newbie Questions 1 939 0 2004-02-10
BUg: SQL Error(s) In Reading Messages In Forums 0 1001 0 2004-02-07
Following A Thread 1 782 0 2004-02-05
BUG? Having A Problem With 'Search' In Forums... 0 779 0 2004-02-04
Moving From Newbie To Freshman Investor, Etc. 3 1061 0 2004-02-03
TCI Now Charging? 9 1299 0 2004-02-03
Networking Groups 1 1238 0 2004-02-03
Land Trusts In Tennessee??? 0 836 0 2004-02-29
Turning A Contract For Deed Into A Mortgage 1 805 0 2004-02-29
Closing On Commercial Property 1 816 0 2004-02-29
Contract Contingencies For A Rehab? 5 990 0 2004-02-29
Advice Needed Badly 2 1115 0 2004-02-28
Straw Buyer, Help! 20 2281 0 2004-02-27
Unconditional Release Of Property From Listing Agent???Help!!! 4 1151 0 2004-02-27
Need Help Quick!! 5 979 0 2004-02-26
Can I Cancel A Contract To Sell???? 8 1034 0 2004-02-26
S-Corp Vs C-Corp FRehabs/Flips 4 1364 0 2004-02-26
How Flip A Property In Probate 1 952 0 2004-02-26
Difference In Entities 0 829 0 2004-02-26
LLC 1 925 0 2004-02-25
I Need A Form 2 1015 0 2004-02-25
How Do I Get Out Of This!!!!! 3 1079 0 2004-02-25
Using LLC In Real Estate?? 15 2603 0 2004-02-25
Usary? 18 2353 0 2004-02-24
Mechanics Lien /Contract For Sale Question 6 993 0 2004-02-24
Seller Note Payoff. 5 1248 0 2004-02-24
Question Of Legality... 1 991 0 2004-02-24
What Liens Survive? 2 983 0 2004-02-24
Referral 0 793 0 2004-02-23
Question From A Newbie.... 9 1004 0 2004-02-23
Cash Renters 1 1004 0 2004-02-23
Basic Legal/financing 1 957 0 2004-02-22
Intesting In Properties Overseas 10 2224 0 2004-02-22
Looking For Atlanta Lawyer Specializing In Predatory Lending Laws 0 843 0 2004-02-22
Question About Setting Up Llc In Georgia 3 1276 0 2004-02-22
I Just Did It Last Week. 1 965 0 2004-02-22
Should We Fire Our Lawyer? 4 934 0 2004-02-21
Pre-Foreclosure Contract 2 857 0 2004-02-21
Need A Lawyer In WPB FL 1 798 0 2004-02-21
Specific Performance VS. Liq. Damages 5 887 0 2004-02-21
Certficate Of Title 2 913 0 2004-02-21
Condo Rental & Association Questionnaire 2 902 0 2004-02-21
Yet Another DOS Question 7 951 0 2004-02-19
Placing Property Into Trust 0 805 0 2004-02-19
Unique Partner Arrangement 0 754 0 2004-02-19
Do I Need One? 2 921 0 2004-02-19
Closing For Land Trust 0 1018 0 2004-02-19
Customizing Standard Purchase Agreement 0 819 0 2004-02-18
Land Trust Forms 3 577 0 2004-02-18
Forms 1 904 0 2004-02-17
Expat Trustee In Land Trust 5 1013 0 2004-02-17
DOS/Insurance One Last Time 5 877 0 2004-02-16
Trustee Services For A Land Trust In SoCal? 6 811 0 2004-02-16
Land Trust On Personal Home 4 957 0 2004-02-16
Bird Dogging! 0 994 0 2004-02-16
My Agent's Not Worthy 12 1282 0 2004-02-16
DOS And The Insurance Problem 3 870 0 2004-02-15
Help! In The Middle Of A Property Mess. 1 863 0 2004-02-15
Nondisclosed Irritation 3 752 0 2004-02-15
Ins On A Wrap, Property Into Llc, Deal Structuring, Etc. 1 791 0 2004-02-15
Quick Question On Contract?? 4 1070 0 2004-02-14
Friend Wants To Buy With All Cash 16 1924 0 2004-02-14
Probate Lead 1 827 0 2004-02-14
LA RE Lawyer Reference? 0 757 0 2004-02-14
In Fla. Is A LLC Or Corp The Way To Go, Need Lawyer In Ocala 0 761 0 2004-02-14
Texas Franchise Tax 0 791 0 2004-02-13
NEEDED: DC Real Estate Attorney 0 730 0 2004-02-13
Cookie Cutter LLCs 4 936 0 2004-02-13
Writ Of Possession 0 868 0 2004-02-13
Sherrif Sales 3 1690 0 2004-02-13
My Bank Allows To Let Me Transfer Deed To LLC But... 2 987 0 2004-02-12
Need Advice/ Major Crisis 1 845 0 2004-02-12
Does This Business Partnership Need An LLC? 0 821 0 2004-02-11
Partnership Question 2 867 0 2004-02-11
Joint Venture 1 893 0 2004-02-11
401k Funds For Real Estate Investment 5 1021 0 2004-02-11
Lawyers Cost 0 891 0 2004-02-10
Class Action Lawsuit Money - Not Disclosed At Clsoing 2 946 0 2004-02-10
Foreclosure Auction Purchase 0 921 0 2004-02-10
Public Domain Question 3 747 0 2004-02-10
Help To Avoid Capital Gains? 4 1037 0 2004-02-10
What Options Do I Have 2 1012 0 2004-02-09
Bird Dogging In TX Legal? 2 958 0 2004-02-08
Operation Agreement 1 998 0 2004-02-08
Notification Of Exercizing Option On Lease? 3 827 0 2004-02-08
LLC 2 1190 0 2004-02-08
Contract Amount Not Enough To Cover Principal Balance And Additional Interest 3 1130 0 2004-02-08
Timeline For Breaking REA Listing Contract? 6 1124 0 2004-02-08
Can A Trustee Use Their Maiden Name? 1 908 0 2004-02-07
Has Anyone Used This Method? 3 1056 0 2004-02-07
Transfer Property To LLC 0 1150 0 2004-02-07
Civil Judgment Attached To Title 7 979 0 2004-02-07
How To For Newbie (Please Help!) 5 1106 0 2004-02-07
Just Got Married - Change My Name On The Deeds? 5 1311 0 2004-02-06
EVICTION QUESTION: 21 2561 0 2004-02-06
Is Foreign Registration Needed ? 1 812 0 2004-02-06
LLC Business Purpose 2 1157 0 2004-02-06
Bankruptcy Question 8 2045 0 2004-02-06
I Think Im Screwed! 27 2542 0 2004-02-06
Filing An "answer" To A Foreclosure Complaint & Other Delay Tactics 6 1081 0 2004-02-06
Property Tax Question 2 1076 0 2004-02-06
Verbal Agreements 5 1434 0 2004-02-05
Who's Liable ? Trust On Title 10 1119 0 2004-02-05
Rental Property - LLC Or Trust? 1 1213 0 2004-02-05
Use Attorney To Create LLC ? 0 954 0 2004-02-05
Fax Contract & Mail Earnest Money??? 2 877 0 2004-02-04
Losing Everything If Unable To Close. 6 1265 0 2004-02-04
Chapter 7 Vs. 13 And Foreclosure 3 821 0 2004-02-04
Software For Legal Forms 1 955 0 2004-02-03
Small Claims Judgement Exemptions???? 0 1086 0 2004-02-03
1031 On Non Primary Residence 3 988 0 2004-02-03
Will An LLC Force A Due On Sale? 3 1001 0 2004-02-03
Forming A Land Trust 4 1071 0 2004-02-03
First LLC Questions 4 1407 0 2004-02-03
Is It Possible To Release A Property Of Large Amount Of Lawsuit Liens?of 2 882 0 2004-02-02
Control Of Raw Land For Future Infill Investing 69 15909 3.75 2004-02-25
Doors and Windows 6 7873 4.66 2004-02-24
The Real Truth About Financing 56 22516 2.19 2004-02-23
SellAnyHouseQuick.com brings in Leads 4 8631 3.66 2004-02-21
Common Home Inspection Problems 6 8070 4.61 2004-02-17
Part 2: Thinking like a Builder 8 7036 3.25 2004-02-16
Gearing Up for Success 50 7900 3.36 2004-02-12
Partnerships for Real Estate Investing 5 7307 3.16 2004-02-11
Invest in Yourself First 8 7579 4.32 2004-02-10
Robert Bruss on benefits of Trusts 14 8577 4.41 2004-02-09
Working the Realtor System 25 11098 2 2004-02-06
AllYouCanRent.com Receives 2500 Hits/Day First Week in Business 5 7983 3 2004-02-04
October 2003 and 2004 Changes to Texas Tax Sale Laws! 0 5195 0 2004-02-04
Renovation Mortgage from Fannie Mae 10 8445 4.26 2004-02-03

Please select the month you want to view: